Observation data for Lesley on 08/14/2019      Previous  Date  Next       Current Mesonet Observations  Soil Data  Daily Summary Page  Observations in Plain Language
KLE1 140500Z 05008KT 26/19 A3009 RMK A01 T02610186  RH  063%=      5-min Rain = 0
KLE1 140501Z 05009KT 26/19 A3009 RMK A01 T02610186  RH  063%=      5-min Rain = 0
KLE1 140502Z 05009KT 26/19 A3009 RMK A01 T02610185  RH  063%=      5-min Rain = 0
KLE1 140503Z 05008KT 26/19 A3009 RMK A01 T02620186  RH  063%=      5-min Rain = 0
KLE1 140504Z 04008KT 26/19 A3009 RMK A01 T02610186  RH  063%=      5-min Rain = 0
KLE1 140505Z 04008KT 26/19 A3009 RMK A01 T02620186  RH  063%=      5-min Rain = 0
KLE1 140506Z 04008KT 26/19 A3009 RMK A01 T02610186  RH  063%=      5-min Rain = 0
KLE1 140507Z 05008KT 26/19 A3009 RMK A01 T02610185  RH  063%=      5-min Rain = 0
KLE1 140508Z 05008KT 26/19 A3009 RMK A01 T02620185  RH  063%=      5-min Rain = 0
KLE1 140509Z 04008KT 26/19 A3009 RMK A01 T02620186  RH  063%=      5-min Rain = 0
KLE1 140510Z 05009KT 26/19 A3009 RMK A01 T02620185  RH  063%=      5-min Rain = 0
KLE1 140526Z 05012KT 26/19 A3012 RMK A01 T02630187  RH  063%=      5-min Rain = 0
KLE1 140527Z 04011KT 26/19 A3012 RMK A01 T02640187  RH  062%=      5-min Rain = 0
KLE1 140528Z 04011KT 27/19 A3012 RMK A01 T02650186  RH  062%=      5-min Rain = 0
KLE1 140529Z 05012KT 27/19 A3012 RMK A01 T02660187  RH  062%=      5-min Rain = 0
KLE1 140530Z 04011KT 27/19 A3012 RMK A01 T02670186  RH  061%=      5-min Rain = 0
KLE1 140531Z 04011KT 27/19 A3012 RMK A01 T02670187  RH  061%=      5-min Rain = 0
KLE1 140532Z 05012KT 27/19 A3012 RMK A01 T02680187  RH  061%=      5-min Rain = 0
KLE1 140533Z 05013KT 27/19 A3012 RMK A01 T02680187  RH  061%=      5-min Rain = 0
KLE1 140534Z 05012KT 27/19 A3012 RMK A01 T02690187  RH  061%=      5-min Rain = 0
KLE1 140535Z 04011KT 27/19 A3012 RMK A01 T02690187  RH  061%=      5-min Rain = 0
KLE1 140536Z 05012KT 27/19 A3012 RMK A01 T02690186  RH  060%=      5-min Rain = 0
KLE1 140537Z 04012KT 27/19 A3012 RMK A01 T02700187  RH  060%=      5-min Rain = 0
KLE1 140538Z 05012KT 27/19 A3012 RMK A01 T02700187  RH  060%=      5-min Rain = 0
KLE1 140539Z 05012KT 27/19 A3012 RMK A01 T02700186  RH  060%=      5-min Rain = 0
KLE1 140540Z 04011KT 27/19 A3012 RMK A01 T02710187  RH  060%=      5-min Rain = 0
KLE1 140541Z 05012KT 27/19 A3012 RMK A01 T02710187  RH  060%=      5-min Rain = 0
KLE1 140542Z 05012KT 27/19 A3012 RMK A01 T02710186  RH  060%=      5-min Rain = 0
KLE1 140543Z 05012KT 27/19 A3011 RMK A01 T02710186  RH  060%=      5-min Rain = 0
KLE1 140544Z 05011KT 27/19 A3011 RMK A01 T02710186  RH  060%=      5-min Rain = 0
KLE1 140545Z 05011KT 27/19 A3011 RMK A01 T02710186  RH  060%=      5-min Rain = 0
KLE1 140546Z 06012KT 27/19 A3011 RMK A01 T02710187  RH  060%=      5-min Rain = 0
KLE1 140547Z 06012KT 27/19 A3011 RMK A01 T02710187  RH  060%=      5-min Rain = 0
KLE1 140548Z 05013KT 27/19 A3011 RMK A01 T02700187  RH  060%=      5-min Rain = 0
KLE1 140549Z 06014KT 27/19 A3011 RMK A01 T02700187  RH  060%=      5-min Rain = 0
KLE1 140550Z 06013KT 27/19 A3011 RMK A01 T02700187  RH  060%=      5-min Rain = 0
KLE1 140551Z 06013KT 27/19 A3011 RMK A01 T02700188  RH  061%=      5-min Rain = 0
KLE1 140552Z 06014KT 27/19 A3011 RMK A01 T02700187  RH  061%=      5-min Rain = 0
KLE1 140553Z 06013KT 27/19 A3011 RMK A01 T02700187  RH  061%=      5-min Rain = 0
KLE1 140554Z 06014KT 27/19 A3011 RMK A01 T02700188  RH  061%=      5-min Rain = 0
KLE1 140555Z 06011KT 27/19 A3011 RMK A01 T02700188  RH  061%=      5-min Rain = 0
KLE1 140556Z 06012KT 27/19 A3011 RMK A01 T02690188  RH  061%=      5-min Rain = 0
KLE1 140557Z 05012KT 27/19 A3012 RMK A01 T02690188  RH  061%=      5-min Rain = 0
KLE1 140558Z 05012KT 27/19 A3012 RMK A01 T02680188  RH  061%=      5-min Rain = 0
KLE1 140559Z 05013KT 27/19 A3012 RMK A01 T02680189  RH  062%=      5-min Rain = 0
KLE1 140600Z 05012KT 27/19 A3012 RMK A01 T02680188  RH  062%=      5-min Rain = 0
KLE1 140601Z 05014KT 27/19 A3012 RMK A01 T02680189  RH  062%=      5-min Rain = 0
KLE1 140602Z 05013KT 27/19 A3012 RMK A01 T02680189  RH  062%=      5-min Rain = 0
KLE1 140603Z 05013KT 27/19 A3012 RMK A01 T02680189  RH  062%=      5-min Rain = 0
KLE1 140604Z 05012KT 27/19 A3012 RMK A01 T02670189  RH  062%=      5-min Rain = 0
KLE1 140605Z 05013KT 27/19 A3013 RMK A01 T02670189  RH  062%=      5-min Rain = 0
KLE1 140606Z 05013KT 27/19 A3012 RMK A01 T02670189  RH  063%=      5-min Rain = 0
KLE1 140607Z 05014KT 27/19 A3012 RMK A01 T02670190  RH  063%=      5-min Rain = 0
KLE1 140608Z 05013KT 27/19 A3012 RMK A01 T02660189  RH  063%=      5-min Rain = 0
KLE1 140609Z 05013KT 27/19 A3012 RMK A01 T02670190  RH  063%=      5-min Rain = 0
KLE1 140610Z 06013KT 27/19 A3012 RMK A01 T02660190  RH  063%=      5-min Rain = 0
KLE1 140611Z 06013KT 27/19 A3012 RMK A01 T02670190  RH  063%=      5-min Rain = 0
KLE1 140612Z 06013KT 27/19 A3012 RMK A01 T02670190  RH  063%=      5-min Rain = 0
KLE1 140613Z 06012KT 27/19 A3012 RMK A01 T02670190  RH  063%=      5-min Rain = 0
KLE1 140614Z 06011KT 27/19 A3012 RMK A01 T02670190  RH  063%=      5-min Rain = 0
KLE1 140615Z 06011KT 27/19 A3012 RMK A01 T02660191  RH  063%=      5-min Rain = 0
KLE1 140616Z 06012KT 27/19 A3012 RMK A01 T02660190  RH  063%=      5-min Rain = 0
KLE1 140617Z 06013KT 27/19 A3012 RMK A01 T02650190  RH  063%=      5-min Rain = 0
KLE1 140618Z 06011KT 27/19 A3012 RMK A01 T02650190  RH  063%=      5-min Rain = 0
KLE1 140619Z 06012KT 27/19 A3012 RMK A01 T02650190  RH  063%=      5-min Rain = 0
KLE1 140620Z 06012KT 27/19 A3012 RMK A01 T02650190  RH  064%=      5-min Rain = 0
KLE1 140621Z 06011KT 27/19 A3012 RMK A01 T02650190  RH  064%=      5-min Rain = 0
KLE1 140622Z 06009KT 27/19 A3012 RMK A01 T02650190  RH  064%=      5-min Rain = 0
KLE1 140623Z 07011KT 26/19 A3012 RMK A01 T02640190  RH  064%=      5-min Rain = 0
KLE1 140624Z 07011KT 26/19 A3012 RMK A01 T02640190  RH  064%=      5-min Rain = 0
KLE1 140625Z 07010KT 26/19 A3012 RMK A01 T02640191  RH  064%=      5-min Rain = 0
KLE1 140626Z 07012KT 26/19 A3012 RMK A01 T02630190  RH  064%=      5-min Rain = 0
KLE1 140627Z 07011KT 26/19 A3012 RMK A01 T02630191  RH  064%=      5-min Rain = 0
KLE1 140628Z 07010KT 26/19 A3012 RMK A01 T02630191  RH  064%=      5-min Rain = 0
KLE1 140629Z 07010KT 26/19 A3012 RMK A01 T02620191  RH  065%=      5-min Rain = 0
KLE1 140630Z 07009KT 26/19 A3012 RMK A01 T02620191  RH  065%=      5-min Rain = 0
KLE1 140631Z 07009KT 26/19 A3012 RMK A01 T02610191  RH  065%=      5-min Rain = 0
KLE1 140632Z 07009KT 26/19 A3012 RMK A01 T02600191  RH  066%=      5-min Rain = 0
KLE1 140633Z 07010KT 26/19 A3011 RMK A01 T02590191  RH  066%=      5-min Rain = 0
KLE1 140634Z 07009KT 26/19 A3011 RMK A01 T02590191  RH  066%=      5-min Rain = 0
KLE1 140635Z 07010KT 26/19 A3011 RMK A01 T02590191  RH  066%=      5-min Rain = 0
KLE1 140636Z 07008KT 26/19 A3011 RMK A01 T02590191  RH  066%=      5-min Rain = 0
KLE1 140637Z 07009KT 26/19 A3011 RMK A01 T02580191  RH  067%=      5-min Rain = 0
KLE1 140638Z 05011KT 26/19 A3012 RMK A01 T02570191  RH  067%=      5-min Rain = 0
KLE1 140639Z 04013KT 26/19 A3012 RMK A01 T02570192  RH  067%=      5-min Rain = 0
KLE1 140640Z 04012KT 26/19 A3012 RMK A01 T02560192  RH  067%=      5-min Rain = 0
KLE1 140641Z 04011KT 26/19 A3012 RMK A01 T02570192  RH  067%=      5-min Rain = 0
KLE1 140642Z 05012KT 26/19 A3012 RMK A01 T02570191  RH  067%=      5-min Rain = 0
KLE1 140643Z 05011KT 26/19 A3012 RMK A01 T02570191  RH  067%=      5-min Rain = 0
KLE1 140644Z 04013G18KT 26/19 A3012 RMK A01 T02570191  RH  067%=      5-min Rain = 0
KLE1 140645Z 04015KT 26/19 A3011 RMK A01 T02580191  RH  067%=      5-min Rain = 0
KLE1 140646Z 04015KT 26/19 A3012 RMK A01 T02570191  RH  067%=      5-min Rain = 0
KLE1 140647Z 05014KT 26/19 A3012 RMK A01 T02580191  RH  067%=      5-min Rain = 0
KLE1 140648Z 04013KT 26/19 A3012 RMK A01 T02570192  RH  067%=      5-min Rain = 0
KLE1 140649Z 05013KT 26/19 A3012 RMK A01 T02560192  RH  068%=      5-min Rain = 0
KLE1 140650Z 05015KT 26/19 A3012 RMK A01 T02550192  RH  068%=      5-min Rain = 0
KLE1 140651Z 04016KT 25/19 A3012 RMK A01 T02530192  RH  069%=      5-min Rain = 0
KLE1 140652Z 04016KT 25/19 A3012 RMK A01 T02530193  RH  069%=      5-min Rain = 0
KLE1 140653Z 04015KT 25/19 A3012 RMK A01 T02520193  RH  070%=      5-min Rain = 0
KLE1 140654Z 03015G20KT 25/19 A3012 RMK A01 T02510192  RH  070%=      5-min Rain = 0
KLE1 140655Z 04018KT 25/19 A3012 RMK A01 T02500191  RH  070%=      5-min Rain = 0
KLE1 140656Z 04015KT 25/19 A3012 RMK A01 T02490190  RH  070%=      5-min Rain = 0
KLE1 140657Z 05017KT 25/19 A3012 RMK A01 T02490188  RH  069%=      5-min Rain = 0
KLE1 140658Z 04016G21KT 25/19 A3012 RMK A01 T02480185  RH  068%=      5-min Rain = 0
KLE1 140659Z 05018KT 25/18 A3012 RMK A01 T02470178  RH  066%=      5-min Rain = 0
KLE1 140700Z 04018G25KT 25/18 A3012 RMK A01 T02470177  RH  065%=      5-min Rain = 0
KLE1 140701Z 04021KT 25/17 A3012 RMK A01 T02460172  RH  063%=      5-min Rain = 0
KLE1 140702Z 04019KT 24/17 A3012 RMK A01 T02440169  RH  063%=      5-min Rain = 0
KLE1 140703Z 04015KT 24/17 A3012 RMK A01 T02430168  RH  063%=      5-min Rain = 0
KLE1 140704Z 04015KT 24/17 A3012 RMK A01 T02420167  RH  063%=      5-min Rain = 0
KLE1 140705Z 04018KT 24/17 A3012 RMK A01 T02400165  RH  063%=      5-min Rain = 0
KLE1 140706Z 04018KT 24/16 A3012 RMK A01 T02400163  RH  062%=      5-min Rain = 0
KLE1 140707Z 04015KT 24/16 A3012 RMK A01 T02390162  RH  062%=      5-min Rain = 0
KLE1 140708Z 04013KT 24/16 A3012 RMK A01 T02380162  RH  062%=      5-min Rain = 0
KLE1 140709Z 04014KT 24/16 A3012 RMK A01 T02380162  RH  062%=      5-min Rain = 0
KLE1 140710Z 04015KT 24/16 A3012 RMK A01 T02370161  RH  062%=      5-min Rain = 0
KLE1 140711Z 04015KT 24/16 A3012 RMK A01 T02360160  RH  062%=      5-min Rain = 0
KLE1 140712Z 04015KT 24/16 A3012 RMK A01 T02360160  RH  062%=      5-min Rain = 0
KLE1 140713Z 04015KT 24/16 A3012 RMK A01 T02360160  RH  062%=      5-min Rain = 0
KLE1 140714Z 04016KT 24/16 A3012 RMK A01 T02350159  RH  062%=      5-min Rain = 0
KLE1 140715Z 04014KT 24/16 A3012 RMK A01 T02350158  RH  062%=      5-min Rain = 0
KLE1 140716Z 03014KT 24/16 A3012 RMK A01 T02350159  RH  062%=      5-min Rain = 0
KLE1 140717Z 04012KT 24/16 A3011 RMK A01 T02350158  RH  062%=      5-min Rain = 0
KLE1 140718Z 04014KT 24/16 A3011 RMK A01 T02350158  RH  062%=      5-min Rain = 0
KLE1 140719Z 04012KT 24/16 A3011 RMK A01 T02350158  RH  062%=      5-min Rain = 0
KLE1 140720Z 04013KT 24/16 A3011 RMK A01 T02350158  RH  062%=      5-min Rain = 0
KLE1 140721Z 04014KT 23/16 A3011 RMK A01 T02340158  RH  062%=      5-min Rain = 0
KLE1 140722Z 04014KT 23/16 A3011 RMK A01 T02340158  RH  062%=      5-min Rain = 0
KLE1 140723Z 04014KT 23/16 A3011 RMK A01 T02340158  RH  062%=      5-min Rain = 0
KLE1 140724Z 04016KT 23/16 A3011 RMK A01 T02330157  RH  062%=      5-min Rain = 0
KLE1 140725Z 04012KT 23/16 A3011 RMK A01 T02330157  RH  062%=      5-min Rain = 0
KLE1 140726Z 04013KT 23/16 A3011 RMK A01 T02330157  RH  062%=      5-min Rain = 0
KLE1 140727Z 03011KT 23/16 A3011 RMK A01 T02330157  RH  062%=      5-min Rain = 0
KLE1 140728Z 03013KT 23/16 A3011 RMK A01 T02320157  RH  063%=      5-min Rain = 0
KLE1 140729Z 03013KT 23/16 A3011 RMK A01 T02320156  RH  063%=      5-min Rain = 0
KLE1 140730Z 03013KT 23/16 A3011 RMK A01 T02310156  RH  062%=      5-min Rain = 0
KLE1 140731Z 03011G16KT 23/16 A3011 RMK A01 T02310155  RH  062%=      5-min Rain = 0
KLE1 140732Z 04014KT 23/15 A3011 RMK A01 T02300154  RH  062%=      5-min Rain = 0
KLE1 140733Z 04015KT 23/15 A3011 RMK A01 T02290153  RH  062%=      5-min Rain = 0
KLE1 140734Z 04015KT 23/15 A3011 RMK A01 T02290152  RH  062%=      5-min Rain = 0
KLE1 140735Z 04015KT 23/15 A3011 RMK A01 T02290151  RH  062%=      5-min Rain = 0
KLE1 140736Z 04012KT 23/15 A3011 RMK A01 T02290151  RH  061%=      5-min Rain = 0
KLE1 140737Z 04013KT 23/15 A3011 RMK A01 T02280151  RH  062%=      5-min Rain = 0
KLE1 140738Z 04015KT 23/15 A3012 RMK A01 T02280150  RH  061%=      5-min Rain = 0
KLE1 140739Z 04013KT 23/15 A3012 RMK A01 T02280150  RH  061%=      5-min Rain = 0
KLE1 140740Z 03013KT 23/15 A3012 RMK A01 T02280150  RH  062%=      5-min Rain = 0
KLE1 140741Z 03012KT 23/15 A3012 RMK A01 T02270150  RH  062%=      5-min Rain = 0
KLE1 140742Z 03012KT 23/15 A3012 RMK A01 T02270150  RH  062%=      5-min Rain = 0
KLE1 140743Z 03012KT 23/15 A3012 RMK A01 T02260150  RH  062%=      5-min Rain = 0
KLE1 140744Z 03012KT 23/15 A3012 RMK A01 T02260150  RH  062%=      5-min Rain = 0
KLE1 140745Z 02012KT 23/15 A3012 RMK A01 T02260150  RH  062%=      5-min Rain = 0
KLE1 140746Z 03012KT 23/15 A3012 RMK A01 T02260149  RH  062%=      5-min Rain = 0
KLE1 140747Z 03012KT 23/15 A3012 RMK A01 T02260149  RH  062%=      5-min Rain = 0
KLE1 140748Z 03012KT 23/15 A3012 RMK A01 T02260149  RH  062%=      5-min Rain = 0
KLE1 140749Z 03012KT 23/15 A3012 RMK A01 T02260149  RH  062%=      5-min Rain = 0
KLE1 140750Z 03010KT 23/15 A3011 RMK A01 T02260149  RH  062%=      5-min Rain = 0
KLE1 140751Z 03013KT 23/15 A3011 RMK A01 T02250149  RH  062%=      5-min Rain = 0
KLE1 140752Z 03013KT 23/15 A3011 RMK A01 T02250149  RH  062%=      5-min Rain = 0
KLE1 140753Z 02011KT 23/15 A3011 RMK A01 T02250149  RH  062%=      5-min Rain = 0
KLE1 140754Z 02011KT 23/15 A3011 RMK A01 T02250149  RH  062%=      5-min Rain = 0
KLE1 140755Z 02011KT 23/15 A3011 RMK A01 T02250149  RH  062%=      5-min Rain = 0
KLE1 140756Z 02013KT 22/15 A3011 RMK A01 T02240149  RH  063%=      5-min Rain = 0
KLE1 140757Z 03011KT 22/15 A3011 RMK A01 T02230149  RH  063%=      5-min Rain = 0
KLE1 140758Z 03014KT 22/15 A3011 RMK A01 T02230149  RH  063%=      5-min Rain = 0
KLE1 140759Z 03013KT 22/15 A3011 RMK A01 T02230148  RH  062%=      5-min Rain = 0
KLE1 140800Z 03013KT 22/15 A3011 RMK A01 T02230148  RH  062%=      5-min Rain = 0
KLE1 140801Z 03013KT 22/15 A3011 RMK A01 T02230148  RH  062%=      5-min Rain = 0
KLE1 140802Z 03015KT 22/15 A3011 RMK A01 T02220147  RH  062%=      5-min Rain = 0
KLE1 140803Z 03014KT 22/15 A3011 RMK A01 T02220146  RH  062%=      5-min Rain = 0
KLE1 140804Z 02014KT 22/15 A3011 RMK A01 T02220146  RH  062%=      5-min Rain = 0
KLE1 140805Z 03014KT 22/15 A3011 RMK A01 T02220146  RH  062%=      5-min Rain = 0
KLE1 140806Z 02013KT 22/15 A3012 RMK A01 T02220146  RH  062%=      5-min Rain = 0
KLE1 140807Z 02015KT 22/15 A3012 RMK A01 T02220145  RH  062%=      5-min Rain = 0
KLE1 140808Z 02014KT 22/15 A3012 RMK A01 T02220145  RH  062%=      5-min Rain = 0
KLE1 140809Z 02013KT 22/15 A3012 RMK A01 T02220145  RH  062%=      5-min Rain = 0
KLE1 140810Z 02013KT 22/15 A3012 RMK A01 T02220145  RH  062%=      5-min Rain = 0
KLE1 140811Z 02012KT 22/15 A3012 RMK A01 T02220145  RH  062%=      5-min Rain = 0
KLE1 140812Z 02015KT 22/15 A3012 RMK A01 T02220145  RH  062%=      5-min Rain = 0
KLE1 140813Z 02014KT 22/14 A3012 RMK A01 T02210144  RH  062%=      5-min Rain = 0
KLE1 140814Z 02013KT 22/14 A3012 RMK A01 T02210144  RH  062%=      5-min Rain = 0
KLE1 140815Z 02012KT 22/14 A3012 RMK A01 T02210144  RH  062%=      5-min Rain = 0
KLE1 140816Z 02012KT 22/14 A3012 RMK A01 T02210144  RH  062%=      5-min Rain = 0
KLE1 140817Z 02014KT 22/14 A3012 RMK A01 T02210144  RH  062%=      5-min Rain = 0
KLE1 140818Z 02013KT 22/14 A3012 RMK A01 T02210144  RH  062%=      5-min Rain = 0
KLE1 140819Z 02012KT 22/15 A3012 RMK A01 T02210145  RH  062%=      5-min Rain = 0
KLE1 140820Z 02013KT 22/14 A3012 RMK A01 T02210144  RH  062%=      5-min Rain = 0
KLE1 140821Z 02015KT 22/14 A3012 RMK A01 T02200144  RH  062%=      5-min Rain = 0
KLE1 140822Z 02015KT 22/14 A3012 RMK A01 T02200144  RH  062%=      5-min Rain = 0
KLE1 140823Z 02014KT 22/14 A3012 RMK A01 T02200144  RH  062%=      5-min Rain = 0
KLE1 140824Z 02015KT 22/14 A3012 RMK A01 T02200144  RH  062%=      5-min Rain = 0
KLE1 140825Z 02012KT 22/14 A3012 RMK A01 T02200143  RH  062%=      5-min Rain = 0
KLE1 140826Z 02011KT 22/14 A3012 RMK A01 T02200144  RH  062%=      5-min Rain = 0
KLE1 140827Z 02010KT 22/14 A3012 RMK A01 T02200144  RH  062%=      5-min Rain = 0
KLE1 140828Z 02013KT 22/14 A3012 RMK A01 T02200144  RH  062%=      5-min Rain = 0
KLE1 140829Z 02013KT 22/14 A3012 RMK A01 T02200144  RH  062%=      5-min Rain = 0
KLE1 140830Z 02014KT 22/14 A3012 RMK A01 T02200144  RH  062%=      5-min Rain = 0
KLE1 140831Z 02012KT 22/14 A3012 RMK A01 T02190144  RH  062%=      5-min Rain = 0
KLE1 140832Z 02011KT 22/14 A3011 RMK A01 T02190144  RH  062%=      5-min Rain = 0
KLE1 140833Z 03012KT 22/14 A3011 RMK A01 T02190144  RH  062%=      5-min Rain = 0
KLE1 140834Z 02012KT 22/14 A3011 RMK A01 T02190144  RH  062%=      5-min Rain = 0
KLE1 140835Z 02012KT 22/14 A3011 RMK A01 T02190144  RH  063%=      5-min Rain = 0
KLE1 140836Z 02013KT 22/14 A3011 RMK A01 T02190144  RH  063%=      5-min Rain = 0
KLE1 140837Z 03010KT 22/15 A3011 RMK A01 T02190145  RH  063%=      5-min Rain = 0
KLE1 140838Z 03015KT 22/14 A3011 RMK A01 T02190144  RH  063%=      5-min Rain = 0
KLE1 140839Z 03015KT 22/14 A3011 RMK A01 T02190144  RH  063%=      5-min Rain = 0
KLE1 140840Z 03012KT 22/14 A3011 RMK A01 T02190144  RH  062%=      5-min Rain = 0
KLE1 140841Z 03013KT 22/14 A3011 RMK A01 T02190144  RH  063%=      5-min Rain = 0
KLE1 140842Z 03012KT 22/15 A3011 RMK A01 T02190145  RH  063%=      5-min Rain = 0
KLE1 140843Z 02012KT 22/15 A3011 RMK A01 T02190145  RH  063%=      5-min Rain = 0
KLE1 140844Z 02012KT 22/15 A3011 RMK A01 T02180145  RH  063%=      5-min Rain = 0
KLE1 140845Z 02012KT 22/15 A3011 RMK A01 T02180145  RH  063%=      5-min Rain = 0
KLE1 140846Z 03010KT 22/15 A3011 RMK A01 T02180145  RH  063%=      5-min Rain = 0
KLE1 140847Z 03014KT 22/15 A3011 RMK A01 T02180145  RH  063%=      5-min Rain = 0
KLE1 140848Z 03014KT 22/15 A3011 RMK A01 T02170145  RH  063%=      5-min Rain = 0
KLE1 140849Z 03013KT 22/15 A3011 RMK A01 T02170145  RH  063%=      5-min Rain = 0
KLE1 140850Z 02012KT 22/15 A3011 RMK A01 T02180145  RH  063%=      5-min Rain = 0
KLE1 140851Z 03014KT 22/15 A3011 RMK A01 T02170145  RH  064%=      5-min Rain = 0
KLE1 140852Z 02016KT 22/15 A3011 RMK A01 T02170146  RH  064%=      5-min Rain = 0
KLE1 140853Z 03014KT 22/15 A3011 RMK A01 T02170146  RH  064%=      5-min Rain = 0
KLE1 140854Z 03015KT 22/15 A3011 RMK A01 T02170145  RH  064%=      5-min Rain = 0
KLE1 140855Z 02012KT 22/15 A3011 RMK A01 T02170145  RH  064%=      5-min Rain = 0
KLE1 140856Z 02013KT 22/15 A3011 RMK A01 T02170146  RH  064%=      5-min Rain = 0
KLE1 140857Z 02013G18KT 22/15 A3011 RMK A01 T02170146  RH  064%=      5-min Rain = 0
KLE1 140858Z 03014KT 22/15 A3011 RMK A01 T02170146  RH  064%=      5-min Rain = 0
KLE1 140859Z 03013KT 22/15 A3011 RMK A01 T02160146  RH  064%=      5-min Rain = 0
KLE1 140900Z 03014G19KT 22/15 A3011 RMK A01 T02160146  RH  064%=      5-min Rain = 0
KLE1 140901Z 03014KT 22/15 A3011 RMK A01 T02160146  RH  064%=      5-min Rain = 0
KLE1 140902Z 03013KT 22/15 A3011 RMK A01 T02160146  RH  064%=      5-min Rain = 0
KLE1 140903Z 03015KT 22/15 A3011 RMK A01 T02160147  RH  064%=      5-min Rain = 0
KLE1 140904Z 03013KT 22/15 A3011 RMK A01 T02170147  RH  065%=      5-min Rain = 0
KLE1 140905Z 03013KT 22/15 A3011 RMK A01 T02160147  RH  065%=      5-min Rain = 0
KLE1 140906Z 03015KT 22/15 A3011 RMK A01 T02170147  RH  065%=      5-min Rain = 0
KLE1 140907Z 03014KT 22/15 A3012 RMK A01 T02160147  RH  065%=      5-min Rain = 0
KLE1 140908Z 03013KT 22/15 A3012 RMK A01 T02160147  RH  065%=      5-min Rain = 0
KLE1 140909Z 03014KT 22/15 A3012 RMK A01 T02160148  RH  065%=      5-min Rain = 0
KLE1 140910Z 03015KT 22/15 A3012 RMK A01 T02160148  RH  065%=      5-min Rain = 0
KLE1 140911Z 02015KT 22/15 A3012 RMK A01 T02160148  RH  065%=      5-min Rain = 0
KLE1 140912Z 03013KT 22/15 A3012 RMK A01 T02170148  RH  065%=      5-min Rain = 0
KLE1 140913Z 03013KT 22/15 A3012 RMK A01 T02160148  RH  065%=      5-min Rain = 0
KLE1 140914Z 03013KT 22/15 A3012 RMK A01 T02160148  RH  065%=      5-min Rain = 0
KLE1 140915Z 03015KT 22/15 A3012 RMK A01 T02160148  RH  065%=      5-min Rain = 0
KLE1 140916Z 03013KT 22/15 A3012 RMK A01 T02150148  RH  066%=      5-min Rain = 0
KLE1 140917Z 03013KT 22/15 A3012 RMK A01 T02160148  RH  066%=      5-min Rain = 0
KLE1 140918Z 03013KT 22/15 A3012 RMK A01 T02160149  RH  066%=      5-min Rain = 0
KLE1 140919Z 03014KT 22/15 A3012 RMK A01 T02160149  RH  066%=      5-min Rain = 0
KLE1 140920Z 03012KT 22/15 A3012 RMK A01 T02160149  RH  066%=      5-min Rain = 0
KLE1 140921Z 03015KT 22/15 A3012 RMK A01 T02160149  RH  066%=      5-min Rain = 0
KLE1 140922Z 03014KT 22/15 A3012 RMK A01 T02160150  RH  066%=      5-min Rain = 0
KLE1 140923Z 03013KT 22/15 A3013 RMK A01 T02150149  RH  066%=      5-min Rain = 0
KLE1 140924Z 03014KT 22/15 A3012 RMK A01 T02150150  RH  066%=      5-min Rain = 0
KLE1 140925Z 03013KT 22/15 A3013 RMK A01 T02150150  RH  066%=      5-min Rain = 0
KLE1 140926Z 02011KT 22/15 A3013 RMK A01 T02150150  RH  066%=      5-min Rain = 0
KLE1 140927Z 03012KT 22/15 A3013 RMK A01 T02150150  RH  066%=      5-min Rain = 0
KLE1 140928Z 03013KT 21/15 A3013 RMK A01 T02140150  RH  067%=      5-min Rain = 0
KLE1 140929Z 03013KT 22/15 A3013 RMK A01 T02150150  RH  067%=      5-min Rain = 0
KLE1 140930Z 02012KT 22/15 A3013 RMK A01 T02150150  RH  067%=      5-min Rain = 0
KLE1 140931Z 03012KT 21/15 A3013 RMK A01 T02140150  RH  067%=      5-min Rain = 0
KLE1 140932Z 03012KT 21/15 A3013 RMK A01 T02140150  RH  067%=      5-min Rain = 0
KLE1 140933Z 03011KT 21/15 A3013 RMK A01 T02140150  RH  067%=      5-min Rain = 0
KLE1 140934Z 03012KT 21/15 A3013 RMK A01 T02130150  RH  067%=      5-min Rain = 0
KLE1 140935Z 03011KT 21/15 A3013 RMK A01 T02140151  RH  067%=      5-min Rain = 0
KLE1 140936Z 03010KT 21/15 A3013 RMK A01 T02140150  RH  067%=      5-min Rain = 0
KLE1 140937Z 03010KT 21/15 A3013 RMK A01 T02140151  RH  067%=      5-min Rain = 0
KLE1 140938Z 03010KT 21/15 A3014 RMK A01 T02130151  RH  068%=      5-min Rain = 0
KLE1 140939Z 03010KT 21/15 A3014 RMK A01 T02130151  RH  068%=      5-min Rain = 0
KLE1 140940Z 03011KT 21/15 A3014 RMK A01 T02130152  RH  068%=      5-min Rain = 0
KLE1 140941Z 03010KT 21/15 A3014 RMK A01 T02130152  RH  068%=      5-min Rain = 0
KLE1 140942Z 03008KT 21/15 A3014 RMK A01 T02130152  RH  068%=      5-min Rain = 0
KLE1 140943Z 03008KT 21/15 A3014 RMK A01 T02130152  RH  068%=      5-min Rain = 0
KLE1 140944Z 03011KT 21/15 A3014 RMK A01 T02130152  RH  068%=      5-min Rain = 0
KLE1 140945Z 03008KT 21/15 A3014 RMK A01 T02130152  RH  068%=      5-min Rain = 0
KLE1 140946Z 03010KT 21/15 A3015 RMK A01 T02130152  RH  068%=      5-min Rain = 0
KLE1 140947Z 04010KT 21/15 A3015 RMK A01 T02130153  RH  068%=      5-min Rain = 0
KLE1 140948Z 03009KT 21/15 A3015 RMK A01 T02140153  RH  068%=      5-min Rain = 0
KLE1 140949Z 03006KT 21/15 A3015 RMK A01 T02140153  RH  068%=      5-min Rain = 0
KLE1 140950Z 04004KT 21/15 A3015 RMK A01 T02140154  RH  068%=      5-min Rain = 0
KLE1 140951Z 03004KT 21/15 A3015 RMK A01 T02140154  RH  068%=      5-min Rain = 0
KLE1 140952Z 07003KT 21/15 A3015 RMK A01 T02140154  RH  068%=      5-min Rain = 0
KLE1 140953Z 06002KT 21/15 A3015 RMK A01 T02140154  RH  068%=      5-min Rain = 0
KLE1 140954Z 05002KT 21/15 A3015 RMK A01 T02140154  RH  069%=      5-min Rain = 0
KLE1 140955Z 12002KT 21/15 A3015 RMK A01 T02140154  RH  068%=      5-min Rain = 0
KLE1 140956Z 09004KT 21/15 A3015 RMK A01 T02140154  RH  069%=      5-min Rain = 0
KLE1 140957Z 09003KT 21/15 A3016 RMK A01 T02140154  RH  069%=      5-min Rain = 0
KLE1 140958Z 10003KT 21/15 A3016 RMK A01 T02140154  RH  069%=      5-min Rain = 0
KLE1 140959Z 10002KT 21/16 A3016 RMK A01 T02140155  RH  069%=      5-min Rain = 0
KLE1 141000Z 10002KT 22/16 A3016 RMK A01 T02150155  RH  069%=      5-min Rain = 0
KLE1 141001Z 10002KT 22/16 A3016 RMK A01 T02150155  RH  069%=      5-min Rain = 0
KLE1 141002Z 08003KT 21/16 A3016 RMK A01 T02140155  RH  069%=      5-min Rain = 0
KLE1 141003Z 09002KT 22/16 A3016 RMK A01 T02150156  RH  069%=      5-min Rain = 0
KLE1 141004Z 09003KT 22/16 A3016 RMK A01 T02150156  RH  069%=      5-min Rain = 0
KLE1 141005Z 09004KT 22/16 A3016 RMK A01 T02150156  RH  069%=      5-min Rain = 0
KLE1 141006Z 09004KT 22/16 A3016 RMK A01 T02150155  RH  069%=      5-min Rain = 0
KLE1 141007Z 08005KT 22/16 A3016 RMK A01 T02150156  RH  069%=      5-min Rain = 0
KLE1 141008Z 07005KT 22/16 A3016 RMK A01 T02150156  RH  069%=      5-min Rain = 0
KLE1 141009Z 05006KT 22/16 A3016 RMK A01 T02150156  RH  069%=      5-min Rain = 0
KLE1 141010Z 06004KT 22/16 A3016 RMK A01 T02150156  RH  069%=      5-min Rain = 0
KLE1 141011Z 07003KT 22/16 A3016 RMK A01 T02160156  RH  069%=      5-min Rain = 0
KLE1 141012Z 07004KT 22/16 A3016 RMK A01 T02160157  RH  069%=      5-min Rain = 0
KLE1 141013Z 08003KT 22/16 A3016 RMK A01 T02150157  RH  069%=      5-min Rain = 0
KLE1 141014Z 03004KT 22/16 A3016 RMK A01 T02150157  RH  069%=      5-min Rain = 0
KLE1 141015Z 05005KT 22/16 A3016 RMK A01 T02150157  RH  070%=      5-min Rain = 0
KLE1 141016Z 05006KT 21/16 A3016 RMK A01 T02140157  RH  070%=      5-min Rain = 0
KLE1 141017Z 04004KT 21/16 A3015 RMK A01 T02140157  RH  070%=      5-min Rain = 0
KLE1 141018Z 06005KT 21/16 A3015 RMK A01 T02140157  RH  070%=      5-min Rain = 0
KLE1 141019Z 06004KT 21/16 A3015 RMK A01 T02140157  RH  070%=      5-min Rain = 0
KLE1 141020Z 09006KT 21/16 A3015 RMK A01 T02140157  RH  070%=      5-min Rain = 0
KLE1 141021Z 10006KT 21/16 A3015 RMK A01 T02140158  RH  070%=      5-min Rain = 0
KLE1 141022Z 08005KT 21/16 A3015 RMK A01 T02130158  RH  071%=      5-min Rain = 0
KLE1 141023Z 08005KT 21/16 A3015 RMK A01 T02130158  RH  071%=      5-min Rain = 0
KLE1 141024Z 11004KT 21/16 A3015 RMK A01 T02130158  RH  071%=      5-min Rain = 0
KLE1 141025Z 09004KT 21/16 A3015 RMK A01 T02120158  RH  071%=      5-min Rain = 0
KLE1 141026Z 09003KT 21/16 A3015 RMK A01 T02120158  RH  071%=      5-min Rain = 0
KLE1 141027Z 10001KT 21/16 A3015 RMK A01 T02120158  RH  071%=      5-min Rain = 0
KLE1 141028Z 08002KT 21/16 A3015 RMK A01 T02110158  RH  072%=      5-min Rain = 0
KLE1 141029Z 08002KT 21/16 A3016 RMK A01 T02100158  RH  072%=      5-min Rain = 0
KLE1 141030Z 06002KT 21/16 A3016 RMK A01 T02100157  RH  072%=      5-min Rain = 0
KLE1 141031Z 06002KT 21/16 A3016 RMK A01 T02100158  RH  072%=      5-min Rain = 0
KLE1 141032Z 08003KT 21/16 A3016 RMK A01 T02100158  RH  072%=      5-min Rain = 0
KLE1 141033Z 08002KT 21/16 A3016 RMK A01 T02100157  RH  072%=      5-min Rain = 0
KLE1 141034Z 07002KT 21/16 A3016 RMK A01 T02110158  RH  072%=      5-min Rain = 0
KLE1 141035Z 06002KT 21/16 A3016 RMK A01 T02100157  RH  072%=      5-min Rain = 0
KLE1 141036Z 04003KT 21/16 A3016 RMK A01 T02110158  RH  072%=      5-min Rain = 0
KLE1 141037Z 03004KT 21/16 A3016 RMK A01 T02110158  RH  072%=      5-min Rain = 0
KLE1 141038Z 03005KT 21/16 A3016 RMK A01 T02100158  RH  072%=      5-min Rain = 0
KLE1 141039Z 04006KT 21/16 A3017 RMK A01 T02090158  RH  073%=      5-min Rain = 0
KLE1 141040Z 04005KT 21/16 A3017 RMK A01 T02080158  RH  073%=      5-min Rain = 0
KLE1 141041Z 03006KT 21/16 A3017 RMK A01 T02080158  RH  073%=      5-min Rain = 0
KLE1 141042Z 02006KT 21/16 A3017 RMK A01 T02070158  RH  073%=      5-min Rain = 0
KLE1 141043Z 03006KT 21/16 A3017 RMK A01 T02070159  RH  074%=      5-min Rain = 0
KLE1 141044Z 03006KT 21/16 A3017 RMK A01 T02070159  RH  074%=      5-min Rain = 0
KLE1 141045Z 02007KT 21/16 A3017 RMK A01 T02070159  RH  074%=      5-min Rain = 0
KLE1 141046Z 02007KT 21/16 A3017 RMK A01 T02070159  RH  074%=      5-min Rain = 0
KLE1 141047Z 02007KT 21/16 A3017 RMK A01 T02070159  RH  074%=      5-min Rain = 0
KLE1 141048Z 02007KT 21/16 A3017 RMK A01 T02070159  RH  074%=      5-min Rain = 0
KLE1 141049Z 01007KT 21/16 A3017 RMK A01 T02070158  RH  074%=      5-min Rain = 0
KLE1 141050Z 02006KT 21/16 A3017 RMK A01 T02070159  RH  074%=      5-min Rain = 0
KLE1 141051Z 02007KT 21/16 A3017 RMK A01 T02070159  RH  074%=      5-min Rain = 0
KLE1 141052Z 03006KT 21/16 A3017 RMK A01 T02070159  RH  074%=      5-min Rain = 0
KLE1 141053Z 03007KT 21/16 A3017 RMK A01 T02070159  RH  074%=      5-min Rain = 0
KLE1 141054Z 02007KT 21/16 A3017 RMK A01 T02070159  RH  074%=      5-min Rain = 0
KLE1 141055Z 03007KT 21/16 A3017 RMK A01 T02080159  RH  074%=      5-min Rain = 0
KLE1 141056Z 03008KT 21/16 A3017 RMK A01 T02080159  RH  073%=      5-min Rain = 0
KLE1 141057Z 02007KT 21/16 A3016 RMK A01 T02090159  RH  073%=      5-min Rain = 0
KLE1 141058Z 02005KT 21/16 A3016 RMK A01 T02090159  RH  073%=      5-min Rain = 0
KLE1 141059Z 02007KT 21/16 A3016 RMK A01 T02090160  RH  073%=      5-min Rain = 0
KLE1 141100Z 02006KT 21/16 A3016 RMK A01 T02090159  RH  073%=      5-min Rain = 0
KLE1 141101Z 01005KT 21/16 A3016 RMK A01 T02090160  RH  074%=      5-min Rain = 0
KLE1 141102Z 01005KT 21/16 A3016 RMK A01 T02080160  RH  074%=      5-min Rain = 0
KLE1 141103Z 01005KT 21/16 A3016 RMK A01 T02080159  RH  074%=      5-min Rain = 0
KLE1 141104Z 01004KT 21/16 A3016 RMK A01 T02080159  RH  074%=      5-min Rain = 0
KLE1 141105Z 36004KT 21/16 A3016 RMK A01 T02080159  RH  074%=      5-min Rain = 0
KLE1 141106Z 36003KT 21/16 A3016 RMK A01 T02080160  RH  074%=      5-min Rain = 0
KLE1 141107Z 35004KT 21/16 A3016 RMK A01 T02070159  RH  074%=      5-min Rain = 0
KLE1 141108Z 35004KT 21/16 A3016 RMK A01 T02070159  RH  074%=      5-min Rain = 0
KLE1 141109Z 35004KT 21/16 A3016 RMK A01 T02060160  RH  074%=      5-min Rain = 0
KLE1 141110Z 35004KT 21/16 A3017 RMK A01 T02060160  RH  075%=      5-min Rain = 0
KLE1 141111Z 35005KT 21/16 A3017 RMK A01 T02060160  RH  075%=      5-min Rain = 0
KLE1 141112Z 35004KT 21/16 A3017 RMK A01 T02060161  RH  075%=      5-min Rain = 0
KLE1 141113Z 35004KT 21/16 A3017 RMK A01 T02050161  RH  076%=      5-min Rain = 0
KLE1 141114Z 35004KT 21/16 A3017 RMK A01 T02050161  RH  076%=      5-min Rain = 0
KLE1 141115Z 34004KT 21/16 A3017 RMK A01 T02050161  RH  076%=      5-min Rain = 0
KLE1 141116Z 34003KT 20/16 A3017 RMK A01 T02040161  RH  076%=      5-min Rain = 0
KLE1 141117Z 33003KT 21/16 A3017 RMK A01 T02050161  RH  076%=      5-min Rain = 0
KLE1 141118Z 33002KT 21/16 A3017 RMK A01 T02050161  RH  076%=      5-min Rain = 0
KLE1 141119Z 32002KT 21/16 A3017 RMK A01 T02050161  RH  076%=      5-min Rain = 0
KLE1 141120Z 31002KT 21/16 A3017 RMK A01 T02050161  RH  076%=      5-min Rain = 0
KLE1 141121Z 27002KT 21/16 A3017 RMK A01 T02050161  RH  076%=      5-min Rain = 0
KLE1 141122Z 27002KT 21/16 A3017 RMK A01 T02060162  RH  076%=      5-min Rain = 0
KLE1 141123Z 27003KT 21/16 A3017 RMK A01 T02060162  RH  076%=      5-min Rain = 0
KLE1 141124Z 26004KT 21/16 A3017 RMK A01 T02050162  RH  076%=      5-min Rain = 0
KLE1 141125Z 25004KT 21/16 A3017 RMK A01 T02050162  RH  076%=      5-min Rain = 0
KLE1 141126Z 27004KT 21/16 A3017 RMK A01 T02050162  RH  076%=      5-min Rain = 0
KLE1 141127Z 27004KT 21/16 A3017 RMK A01 T02060163  RH  076%=      5-min Rain = 0
KLE1 141128Z 26004KT 21/16 A3018 RMK A01 T02050162  RH  076%=      5-min Rain = 0
KLE1 141129Z 26005KT 21/16 A3018 RMK A01 T02060162  RH  076%=      5-min Rain = 0
KLE1 141130Z 26004KT 21/16 A3017 RMK A01 T02060162  RH  076%=      5-min Rain = 0
KLE1 141131Z 26004KT 21/16 A3017 RMK A01 T02060162  RH  076%=      5-min Rain = 0
KLE1 141132Z 26004KT 21/16 A3017 RMK A01 T02060163  RH  076%=      5-min Rain = 0
KLE1 141133Z 25004KT 21/16 A3017 RMK A01 T02060162  RH  076%=      5-min Rain = 0
KLE1 141134Z 25003KT 21/16 A3017 RMK A01 T02060162  RH  075%=      5-min Rain = 0
KLE1 141135Z 26003KT 21/16 A3017 RMK A01 T02060161  RH  075%=      5-min Rain = 0
KLE1 141136Z 26002KT 21/16 A3016 RMK A01 T02060161  RH  075%=      5-min Rain = 0
KLE1 141137Z 26002KT 21/16 A3016 RMK A01 T02060160  RH  075%=      5-min Rain = 0
KLE1 141138Z 26002KT 21/16 A3016 RMK A01 T02060161  RH  075%=      5-min Rain = 0
KLE1 141139Z 26002KT 21/16 A3017 RMK A01 T02050161  RH  076%=      5-min Rain = 0
KLE1 141140Z 26002KT 21/16 A3017 RMK A01 T02050161  RH  076%=      5-min Rain = 0
KLE1 141141Z 26002KT 20/16 A3017 RMK A01 T02040160  RH  076%=      5-min Rain = 0
KLE1 141142Z 26002KT 20/16 A3017 RMK A01 T02040160  RH  076%=      5-min Rain = 0
KLE1 141143Z 25002KT 20/16 A3017 RMK A01 T02030160  RH  076%=      5-min Rain = 0
KLE1 141144Z 23002KT 20/16 A3017 RMK A01 T02030160  RH  077%=      5-min Rain = 0
KLE1 141145Z 22003KT 20/16 A3017 RMK A01 T02020160  RH  077%=      5-min Rain = 0
KLE1 141146Z 21004KT 20/16 A3017 RMK A01 T02000160  RH  077%=      5-min Rain = 0
KLE1 141147Z 21005KT 20/16 A3017 RMK A01 T01990160  RH  078%=      5-min Rain = 0
KLE1 141148Z 21005KT 20/16 A3017 RMK A01 T01990161  RH  079%=      5-min Rain = 0
KLE1 141149Z 20005KT 20/16 A3017 RMK A01 T01980161  RH  079%=      5-min Rain = 0
KLE1 141150Z 21005KT 20/16 A3017 RMK A01 T01980162  RH  080%=      5-min Rain = 0
KLE1 141151Z 21004KT 20/16 A3017 RMK A01 T01970162  RH  080%=      5-min Rain = 0
KLE1 141152Z 22003KT 20/16 A3017 RMK A01 T01970162  RH  081%=      5-min Rain = 0
KLE1 141153Z 23003KT 20/16 A3017 RMK A01 T01960163  RH  081%=      5-min Rain = 0
KLE1 141154Z 24003KT 20/16 A3017 RMK A01 T01960163  RH  081%=      5-min Rain = 0
KLE1 141155Z 25003KT 20/16 A3017 RMK A01 T01950163  RH  081%=      5-min Rain = 0
KLE1 141156Z 25003KT 20/16 A3017 RMK A01 T01950163  RH  081%=      5-min Rain = 0
KLE1 141157Z 25003KT 20/16 A3017 RMK A01 T01960163  RH  081%=      5-min Rain = 0
KLE1 141158Z 25003KT 20/16 A3017 RMK A01 T01960162  RH  081%=      5-min Rain = 0
KLE1 141159Z 26003KT 20/16 A3017 RMK A01 T01970162  RH  080%=      5-min Rain = 0
KLE1 141200Z 27004KT 20/16 A3017 RMK A01 T01980162  RH  080%=      5-min Rain = 0
KLE1 141201Z 28004KT 20/16 A3017 RMK A01 T01980162  RH  079%=      5-min Rain = 0
KLE1 141202Z 29006KT 20/16 A3018 RMK A01 T01980162  RH  080%=      5-min Rain = 0
KLE1 141203Z 30007KT 20/16 A3018 RMK A01 T01970163  RH  081%=      5-min Rain = 0
KLE1 141204Z 30009KT 20/16 A3018 RMK A01 T01960164  RH  082%=      5-min Rain = 0
KLE1 141205Z 30009KT 20/16 A3018 RMK A01 T01950164  RH  082%=      5-min Rain = 0
KLE1 141206Z 30008KT 20/16 A3018 RMK A01 T01950162  RH  082%=      5-min Rain = 0
KLE1 141207Z 29008KT 20/16 A3018 RMK A01 T01950162  RH  081%=      5-min Rain = 0
KLE1 141208Z 29008KT 20/16 A3018 RMK A01 T01960161  RH  081%=      5-min Rain = 0
KLE1 141209Z 29008KT 20/16 A3018 RMK A01 T01960162  RH  080%=      5-min Rain = 0
KLE1 141210Z 29008KT 20/16 A3018 RMK A01 T01960161  RH  080%=      5-min Rain = 0
KLE1 141211Z 30009KT 20/16 A3018 RMK A01 T01970162  RH  080%=      5-min Rain = 0
KLE1 141212Z 30008KT 20/16 A3018 RMK A01 T01970161  RH  080%=      5-min Rain = 0
KLE1 141213Z 30007KT 20/16 A3018 RMK A01 T01980161  RH  079%=      5-min Rain = 0
KLE1 141214Z 30007KT 20/16 A3018 RMK A01 T01980161  RH  079%=      5-min Rain = 0
KLE1 141215Z 30008KT 20/16 A3018 RMK A01 T01990161  RH  079%=      5-min Rain = 0
KLE1 141216Z 30009KT 20/16 A3019 RMK A01 T01990161  RH  079%=      5-min Rain = 0
KLE1 141217Z 30010KT 20/16 A3019 RMK A01 T02000161  RH  079%=      5-min Rain = 0
KLE1 141218Z 31010KT 20/16 A3019 RMK A01 T02000162  RH  078%=      5-min Rain = 0
KLE1 141219Z 31010KT 20/16 A3019 RMK A01 T02010162  RH  078%=      5-min Rain = 0
KLE1 141220Z 31010KT 20/16 A3019 RMK A01 T02010161  RH  078%=      5-min Rain = 0
KLE1 141221Z 30009KT 20/16 A3018 RMK A01 T02010161  RH  078%=      5-min Rain = 0
KLE1 141222Z 29008KT 20/16 A3018 RMK A01 T02020161  RH  077%=      5-min Rain = 0
KLE1 141223Z 29007KT 20/16 A3018 RMK A01 T02030162  RH  077%=      5-min Rain = 0
KLE1 141224Z 30006KT 20/16 A3018 RMK A01 T02030162  RH  077%=      5-min Rain = 0
KLE1 141225Z 30008KT 20/16 A3018 RMK A01 T02030162  RH  077%=      5-min Rain = 0
KLE1 141226Z 30008KT 20/16 A3019 RMK A01 T02030162  RH  077%=      5-min Rain = 0
KLE1 141227Z 31008KT 20/16 A3019 RMK A01 T02030162  RH  077%=      5-min Rain = 0
KLE1 141228Z 31008KT 20/16 A3019 RMK A01 T02030161  RH  077%=      5-min Rain = 0
KLE1 141229Z 31007KT 20/16 A3019 RMK A01 T02030161  RH  077%=      5-min Rain = 0
KLE1 141230Z 30008KT 20/16 A3018 RMK A01 T02030161  RH  077%=      5-min Rain = 0
KLE1 141231Z 31008KT 20/16 A3018 RMK A01 T02040161  RH  076%=      5-min Rain = 0
KLE1 141232Z 31008KT 20/16 A3019 RMK A01 T02040161  RH  076%=      5-min Rain = 0
KLE1 141233Z 31008KT 20/16 A3019 RMK A01 T02040161  RH  076%=      5-min Rain = 0
KLE1 141234Z 31008KT 20/16 A3019 RMK A01 T02040161  RH  077%=      5-min Rain = 0
KLE1 141235Z 31008KT 20/16 A3019 RMK A01 T02040161  RH  076%=      5-min Rain = 0
KLE1 141236Z 30008KT 20/16 A3019 RMK A01 T02040161  RH  076%=      5-min Rain = 0
KLE1 141237Z 30008KT 20/16 A3019 RMK A01 T02030161  RH  076%=      5-min Rain = 0
KLE1 141238Z 31009KT 20/16 A3019 RMK A01 T02040161  RH  077%=      5-min Rain = 0
KLE1 141239Z 31010KT 20/16 A3019 RMK A01 T02040161  RH  077%=      5-min Rain = 0
KLE1 141240Z 31011KT 20/16 A3019 RMK A01 T02040161  RH  076%=      5-min Rain = 0
KLE1 141241Z 31010KT 20/16 A3019 RMK A01 T02040160  RH  076%=      5-min Rain = 0
KLE1 141242Z 31009KT 20/16 A3019 RMK A01 T02040160  RH  076%=      5-min Rain = 0
KLE1 141243Z 32009KT 21/16 A3019 RMK A01 T02050160  RH  075%=      5-min Rain = 0
KLE1 141244Z 32009KT 21/16 A3019 RMK A01 T02060160  RH  075%=      5-min Rain = 0
KLE1 141245Z 32009KT 21/16 A3019 RMK A01 T02070161  RH  075%=      5-min Rain = 0
KLE1 141246Z 32008KT 21/16 A3019 RMK A01 T02070161  RH  075%=      5-min Rain = 0
KLE1 141247Z 32008KT 21/16 A3019 RMK A01 T02080161  RH  075%=      5-min Rain = 0
KLE1 141248Z 31006KT 21/16 A3019 RMK A01 T02080161  RH  074%=      5-min Rain = 0
KLE1 141249Z 30006KT 21/16 A3018 RMK A01 T02090161  RH  074%=      5-min Rain = 0
KLE1 141250Z 30007KT 21/16 A3018 RMK A01 T02090161  RH  074%=      5-min Rain = 0
KLE1 141251Z 30007KT 21/16 A3018 RMK A01 T02100161  RH  074%=      5-min Rain = 0
KLE1 141252Z 30008KT 21/16 A3018 RMK A01 T02100161  RH  073%=      5-min Rain = 0
KLE1 141253Z 30006KT 21/16 A3018 RMK A01 T02100161  RH  073%=      5-min Rain = 0
KLE1 141254Z 30007KT 21/16 A3018 RMK A01 T02110161  RH  073%=      5-min Rain = 0
KLE1 141255Z 30006KT 21/16 A3018 RMK A01 T02110161  RH  073%=      5-min Rain = 0
KLE1 141256Z 30006KT 21/16 A3018 RMK A01 T02110161  RH  073%=      5-min Rain = 0
KLE1 141257Z 30006KT 21/16 A3018 RMK A01 T02110161  RH  073%=      5-min Rain = 0
KLE1 141258Z 30005KT 21/16 A3018 RMK A01 T02120161  RH  073%=      5-min Rain = 0
KLE1 141259Z 30004KT 21/16 A3018 RMK A01 T02130161  RH  072%=      5-min Rain = 0
KLE1 141300Z 31004KT 21/16 A3018 RMK A01 T02130161  RH  072%=      5-min Rain = 0
KLE1 141301Z 32005KT 21/16 A3018 RMK A01 T02140162  RH  072%=      5-min Rain = 0
KLE1 141302Z 32007KT 21/16 A3018 RMK A01 T02140161  RH  072%=      5-min Rain = 0
KLE1 141303Z 32006KT 21/16 A3019 RMK A01 T02140161  RH  072%=      5-min Rain = 0
KLE1 141304Z 32007KT 21/16 A3019 RMK A01 T02140161  RH  072%=      5-min Rain = 0
KLE1 141305Z 32007KT 21/16 A3019 RMK A01 T02140161  RH  072%=      5-min Rain = 0
KLE1 141306Z 31006KT 21/16 A3018 RMK A01 T02140160  RH  071%=      5-min Rain = 0
KLE1 141307Z 31005KT 21/16 A3018 RMK A01 T02140160  RH  071%=      5-min Rain = 0
KLE1 141308Z 30004KT 21/16 A3018 RMK A01 T02140161  RH  072%=      5-min Rain = 0
KLE1 141309Z 29004KT 21/16 A3018 RMK A01 T02140161  RH  072%=      5-min Rain = 0
KLE1 141310Z 29005KT 21/16 A3018 RMK A01 T02140161  RH  072%=      5-min Rain = 0
KLE1 141311Z 29005KT 21/16 A3018 RMK A01 T02140162  RH  072%=      5-min Rain = 0
KLE1 141312Z 30006KT 21/16 A3018 RMK A01 T02140162  RH  072%=      5-min Rain = 0
KLE1 141313Z 30006KT 21/16 A3018 RMK A01 T02140161  RH  072%=      5-min Rain = 0
KLE1 141314Z 31006KT 21/16 A3019 RMK A01 T02140161  RH  072%=      5-min Rain = 0
KLE1 141315Z 31007KT 22/16 A3019 RMK A01 T02150162  RH  072%=      5-min Rain = 0
KLE1 141316Z 32006KT 22/16 A3019 RMK A01 T02150161  RH  072%=      5-min Rain = 0
KLE1 141317Z 32008KT 22/16 A3019 RMK A01 T02150162  RH  072%=      5-min Rain = 0
KLE1 141318Z 32008KT 22/16 A3019 RMK A01 T02150161  RH  071%=      5-min Rain = 0
KLE1 141319Z 32007KT 22/16 A3019 RMK A01 T02160161  RH  071%=      5-min Rain = 0
KLE1 141320Z 32006KT 22/16 A3019 RMK A01 T02160162  RH  071%=      5-min Rain = 0
KLE1 141321Z 31007KT 22/16 A3019 RMK A01 T02160161  RH  071%=      5-min Rain = 0
KLE1 141322Z 31007KT 22/16 A3019 RMK A01 T02160161  RH  071%=      5-min Rain = 0
KLE1 141323Z 31007KT 22/16 A3019 RMK A01 T02160161  RH  071%=      5-min Rain = 0
KLE1 141324Z 31009KT 22/16 A3019 RMK A01 T02170161  RH  071%=      5-min Rain = 0
KLE1 141325Z 31008KT 22/16 A3019 RMK A01 T02160160  RH  070%=      5-min Rain = 0
KLE1 141326Z 30008KT 22/16 A3019 RMK A01 T02160160  RH  070%=      5-min Rain = 0
KLE1 141327Z 31007KT 22/16 A3019 RMK A01 T02160160  RH  070%=      5-min Rain = 0
KLE1 141328Z 30006KT 22/16 A3019 RMK A01 T02160160  RH  071%=      5-min Rain = 0
KLE1 141329Z 30007KT 22/16 A3019 RMK A01 T02160160  RH  070%=      5-min Rain = 0
KLE1 141330Z 31006KT 22/16 A3019 RMK A01 T02160159  RH  070%=      5-min Rain = 0
KLE1 141331Z 31007KT 22/16 A3019 RMK A01 T02160159  RH  070%=      5-min Rain = 0
KLE1 141332Z 30006KT 22/16 A3019 RMK A01 T02160158  RH  070%=      5-min Rain = 0
KLE1 141333Z 31006KT 22/16 A302 RMK A01 T02160158  RH  070%=      5-min Rain = 0
KLE1 141334Z 31006KT 22/16 A302 RMK A01 T02160158  RH  070%=      5-min Rain = 0
KLE1 141335Z 31007KT 22/16 A302 RMK A01 T02170158  RH  069%=      5-min Rain = 0
KLE1 141336Z 31006KT 22/16 A302 RMK A01 T02160158  RH  069%=      5-min Rain = 0
KLE1 141337Z 30007KT 22/16 A302 RMK A01 T02170158  RH  069%=      5-min Rain = 0
KLE1 141338Z 30007KT 22/16 A302 RMK A01 T02170158  RH  069%=      5-min Rain = 0
KLE1 141339Z 30006KT 22/16 A302 RMK A01 T02170158  RH  069%=      5-min Rain = 0
KLE1 141340Z 30007KT 22/16 A302 RMK A01 T02170158  RH  069%=      5-min Rain = 0
KLE1 141341Z 30008KT 22/16 A302 RMK A01 T02170157  RH  069%=      5-min Rain = 0
KLE1 141342Z 30008KT 22/16 A302 RMK A01 T02180157  RH  068%=      5-min Rain = 0
KLE1 141343Z 31007KT 22/16 A302 RMK A01 T02170157  RH  068%=      5-min Rain = 0
KLE1 141344Z 31006KT 22/16 A302 RMK A01 T02180158  RH  069%=      5-min Rain = 0
KLE1 141345Z 32008KT 22/16 A302 RMK A01 T02180157  RH  068%=      5-min Rain = 0
KLE1 141346Z 32007KT 22/16 A302 RMK A01 T02180157  RH  068%=      5-min Rain = 0
KLE1 141347Z 32008KT 22/16 A302 RMK A01 T02190157  RH  068%=      5-min Rain = 0
KLE1 141348Z 32007KT 22/16 A302 RMK A01 T02190156  RH  068%=      5-min Rain = 0
KLE1 141349Z 32006KT 22/16 A302 RMK A01 T02190157  RH  068%=      5-min Rain = 0
KLE1 141350Z 32006KT 22/16 A302 RMK A01 T02190157  RH  068%=      5-min Rain = 0
KLE1 141351Z 32006KT 22/16 A302 RMK A01 T02200156  RH  067%=      5-min Rain = 0
KLE1 141352Z 32006KT 22/16 A302 RMK A01 T02200156  RH  067%=      5-min Rain = 0
KLE1 141353Z 31005KT 22/16 A302 RMK A01 T02200156  RH  067%=      5-min Rain = 0
KLE1 141354Z 33004KT 22/16 A302 RMK A01 T02200156  RH  067%=      5-min Rain = 0
KLE1 141355Z 32004KT 22/16 A302 RMK A01 T02200156  RH  067%=      5-min Rain = 0
KLE1 141356Z 33004KT 22/16 A302 RMK A01 T02210157  RH  067%=      5-min Rain = 0
KLE1 141357Z 34004KT 22/16 A302 RMK A01 T02210157  RH  067%=      5-min Rain = 0
KLE1 141358Z 34005KT 22/16 A302 RMK A01 T02220158  RH  067%=      5-min Rain = 0
KLE1 141359Z 33005KT 22/16 A302 RMK A01 T02220156  RH  066%=      5-min Rain = 0
KLE1 141400Z 33005KT 22/16 A302 RMK A01 T02230157  RH  066%=      5-min Rain = 0
KLE1 141401Z 33005KT 22/16 A302 RMK A01 T02230156  RH  066%=      5-min Rain = 0
KLE1 141402Z 32005KT 22/16 A302 RMK A01 T02220156  RH  066%=      5-min Rain = 0
KLE1 141403Z 32006KT 22/16 A302 RMK A01 T02230156  RH  066%=      5-min Rain = 0
KLE1 141404Z 32005KT 22/16 A302 RMK A01 T02230156  RH  066%=      5-min Rain = 0
KLE1 141405Z 32006KT 22/16 A302 RMK A01 T02230156  RH  066%=      5-min Rain = 0
KLE1 141406Z 33006KT 22/16 A302 RMK A01 T02230155  RH  066%=      5-min Rain = 0
KLE1 141407Z 32005KT 22/16 A302 RMK A01 T02230156  RH  066%=      5-min Rain = 0
KLE1 141408Z 32004KT 22/16 A302 RMK A01 T02230157  RH  066%=      5-min Rain = 0
KLE1 141409Z 34004KT 22/16 A302 RMK A01 T02230158  RH  066%=      5-min Rain = 0
KLE1 141410Z 31004KT 22/16 A302 RMK A01 T02240157  RH  066%=      5-min Rain = 0
KLE1 141411Z 31005KT 22/16 A302 RMK A01 T02240157  RH  066%=      5-min Rain = 0
KLE1 141412Z 31004KT 22/16 A302 RMK A01 T02240157  RH  066%=      5-min Rain = 0
KLE1 141413Z 31005KT 22/16 A302 RMK A01 T02240157  RH  066%=      5-min Rain = 0
KLE1 141414Z 31004KT 22/16 A302 RMK A01 T02240157  RH  066%=      5-min Rain = 0
KLE1 141415Z 32004KT 22/16 A302 RMK A01 T02240156  RH  066%=      5-min Rain = 0
KLE1 141416Z 31004KT 22/16 A302 RMK A01 T02240155  RH  065%=      5-min Rain = 0
KLE1 141417Z 31004KT 22/16 A302 RMK A01 T02240156  RH  065%=      5-min Rain = 0
KLE1 141418Z 30005KT 22/16 A302 RMK A01 T02240156  RH  065%=      5-min Rain = 0
KLE1 141419Z 31005KT 22/16 A302 RMK A01 T02240156  RH  065%=      5-min Rain = 0
KLE1 141420Z 29006KT 23/16 A302 RMK A01 T02250158  RH  066%=      5-min Rain = 0
KLE1 141421Z 29005KT 23/16 A3021 RMK A01 T02250158  RH  066%=      5-min Rain = 0
KLE1 141422Z 30006KT 23/16 A3021 RMK A01 T02250159  RH  066%=      5-min Rain = 0
KLE1 141423Z 30006KT 23/16 A3021 RMK A01 T02250157  RH  065%=      5-min Rain = 0
KLE1 141424Z 30007KT 23/16 A3021 RMK A01 T02250157  RH  065%=      5-min Rain = 0
KLE1 141425Z 31007KT 23/16 A3021 RMK A01 T02250158  RH  066%=      5-min Rain = 0
KLE1 141426Z 31007KT 23/16 A3021 RMK A01 T02260158  RH  065%=      5-min Rain = 0
KLE1 141427Z 31007KT 23/16 A3021 RMK A01 T02260158  RH  065%=      5-min Rain = 0
KLE1 141428Z 31006KT 23/16 A3021 RMK A01 T02260158  RH  065%=      5-min Rain = 0
KLE1 141429Z 31006KT 23/16 A3021 RMK A01 T02270158  RH  065%=      5-min Rain = 0
KLE1 141430Z 30006KT 23/16 A3021 RMK A01 T02270158  RH  065%=      5-min Rain = 0
KLE1 141431Z 29006KT 23/16 A3022 RMK A01 T02280159  RH  065%=      5-min Rain = 0
KLE1 141432Z 28006KT 23/16 A3022 RMK A01 T02290159  RH  065%=      5-min Rain = 0
KLE1 141433Z 28006KT 23/16 A3022 RMK A01 T02290159  RH  065%=      5-min Rain = 0
KLE1 141434Z 28006KT 23/16 A3022 RMK A01 T02290159  RH  064%=      5-min Rain = 0
KLE1 141435Z 28007KT 23/16 A3022 RMK A01 T02300158  RH  064%=      5-min Rain = 0
KLE1 141436Z 27006KT 23/16 A3022 RMK A01 T02300158  RH  064%=      5-min Rain = 0
KLE1 141437Z 27006KT 23/16 A3022 RMK A01 T02300159  RH  064%=      5-min Rain = 0
KLE1 141438Z 28005KT 23/16 A3022 RMK A01 T02300159  RH  064%=      5-min Rain = 0
KLE1 141439Z 28005KT 23/16 A3021 RMK A01 T02300160  RH  064%=      5-min Rain = 0
KLE1 141440Z 28004KT 23/16 A3021 RMK A01 T02310158  RH  064%=      5-min Rain = 0
KLE1 141441Z 27004KT 23/16 A3021 RMK A01 T02310159  RH  064%=      5-min Rain = 0
KLE1 141442Z 27004KT 23/16 A3021 RMK A01 T02310158  RH  064%=      5-min Rain = 0
KLE1 141443Z 27004KT 23/16 A302 RMK A01 T02310158  RH  063%=      5-min Rain = 0
KLE1 141444Z 30003KT 23/16 A302 RMK A01 T02310159  RH  064%=      5-min Rain = 0
KLE1 141445Z 33002KT 23/16 A302 RMK A01 T02310159  RH  064%=      5-min Rain = 0
KLE1 141446Z 01002KT 23/16 A302 RMK A01 T02310157  RH  063%=      5-min Rain = 0
KLE1 141447Z 02002KT 23/16 A302 RMK A01 T02310157  RH  063%=      5-min Rain = 0
KLE1 141448Z 01003KT 23/16 A3019 RMK A01 T02310158  RH  063%=      5-min Rain = 0
KLE1 141449Z 03002KT 23/16 A3019 RMK A01 T02310158  RH  063%=      5-min Rain = 0
KLE1 141450Z 03002KT 23/16 A3019 RMK A01 T02320158  RH  063%=      5-min Rain = 0
KLE1 141451Z 02003KT 23/16 A3019 RMK A01 T02330160  RH  063%=      5-min Rain = 0
KLE1 141452Z 02003KT 23/16 A3019 RMK A01 T02340159  RH  063%=      5-min Rain = 0
KLE1 141453Z 03003KT 23/16 A3019 RMK A01 T02340158  RH  062%=      5-min Rain = 0
KLE1 141454Z 02002KT 24/16 A3019 RMK A01 T02350159  RH  062%=      5-min Rain = 0
KLE1 141455Z 33001KT 24/16 A302 RMK A01 T02360160  RH  063%=      5-min Rain = 0
KLE1 141456Z 31002KT 24/16 A3019 RMK A01 T02370159  RH  062%=      5-min Rain = 0
KLE1 141457Z 32001KT 24/16 A3019 RMK A01 T02380159  RH  061%=      5-min Rain = 0
KLE1 141458Z 29002KT 24/16 A3019 RMK A01 T02380159  RH  061%=      5-min Rain = 0
KLE1 141459Z 28001KT 24/16 A3019 RMK A01 T02380159  RH  061%=      5-min Rain = 0
KLE1 141500Z 00000KT 24/16 A3019 RMK A01 T02380158  RH  061%=      5-min Rain = 0
KLE1 141501Z 28000KT 24/16 A3019 RMK A01 T02380158  RH  061%=      5-min Rain = 0
KLE1 141502Z 12000KT 24/16 A3019 RMK A01 T02390159  RH  061%=      5-min Rain = 0
KLE1 141503Z 00000KT 24/16 A3019 RMK A01 T02400159  RH  060%=      5-min Rain = 0
KLE1 141504Z 21001KT 24/16 A3019 RMK A01 T02410159  RH  060%=      5-min Rain = 0
KLE1 141505Z 22002KT 24/16 A3019 RMK A01 T02420160  RH  060%=      5-min Rain = 0
KLE1 141506Z 22001KT 24/16 A3019 RMK A01 T02420161  RH  061%=      5-min Rain = 0
KLE1 141507Z 20002KT 24/16 A3018 RMK A01 T02410160  RH  060%=      5-min Rain = 0
KLE1 141508Z 20002KT 24/16 A3018 RMK A01 T02420160  RH  060%=      5-min Rain = 0
KLE1 141509Z 20004KT 24/16 A3018 RMK A01 T02420161  RH  061%=      5-min Rain = 0
KLE1 141510Z 21006KT 24/16 A3018 RMK A01 T02430162  RH  061%=      5-min Rain = 0
KLE1 141511Z 21006KT 24/16 A3018 RMK A01 T02430162  RH  060%=      5-min Rain = 0
KLE1 141512Z 20005KT 24/16 A3018 RMK A01 T02430162  RH  060%=      5-min Rain = 0
KLE1 141513Z 21003KT 24/16 A3018 RMK A01 T02420160  RH  060%=      5-min Rain = 0
KLE1 141514Z 20003KT 24/16 A3018 RMK A01 T02410162  RH  061%=      5-min Rain = 0
KLE1 141515Z 19003KT 24/16 A3018 RMK A01 T02420162  RH  061%=      5-min Rain = 0
KLE1 141516Z 19002KT 24/16 A3019 RMK A01 T02420161  RH  060%=      5-min Rain = 0
KLE1 141517Z 23002KT 24/16 A3019 RMK A01 T02420161  RH  060%=      5-min Rain = 0
KLE1 141518Z 24003KT 24/16 A3019 RMK A01 T02420161  RH  061%=      5-min Rain = 0
KLE1 141519Z 25001KT 24/16 A3019 RMK A01 T02410161  RH  061%=      5-min Rain = 0
KLE1 141520Z 28001KT 24/16 A3019 RMK A01 T02420161  RH  061%=      5-min Rain = 0
KLE1 141521Z 27001KT 24/16 A3019 RMK A01 T02420162  RH  061%=      5-min Rain = 0
KLE1 141522Z 27002KT 24/16 A3019 RMK A01 T02420161  RH  061%=      5-min Rain = 0
KLE1 141523Z 28003KT 24/16 A3019 RMK A01 T02430163  RH  061%=      5-min Rain = 0
KLE1 141524Z 29003KT 24/16 A3019 RMK A01 T02430163  RH  061%=      5-min Rain = 0
KLE1 141525Z 28003KT 24/16 A3019 RMK A01 T02430162  RH  060%=      5-min Rain = 0
KLE1 141526Z 29002KT 24/16 A3019 RMK A01 T02430162  RH  061%=      5-min Rain = 0
KLE1 141527Z 27002KT 24/16 A3019 RMK A01 T02420162  RH  061%=      5-min Rain = 0
KLE1 141528Z 28002KT 24/16 A3019 RMK A01 T02410162  RH  061%=      5-min Rain = 0
KLE1 141529Z 26001KT 24/16 A3018 RMK A01 T02410163  RH  062%=      5-min Rain = 0
KLE1 141530Z 26001KT 24/16 A3018 RMK A01 T02410163  RH  062%=      5-min Rain = 0
KLE1 141531Z 00000KT 24/16 A3018 RMK A01 T02410163  RH  062%=      5-min Rain = 0
KLE1 141532Z 13000KT 24/16 A3018 RMK A01 T02410162  RH  061%=      5-min Rain = 0
KLE1 141533Z 00000KT 24/16 A3018 RMK A01 T02420164  RH  062%=      5-min Rain = 0
KLE1 141534Z 17000KT 24/16 A3018 RMK A01 T02430164  RH  061%=      5-min Rain = 0
KLE1 141535Z 16001KT 25/17 A3018 RMK A01 T02460166  RH  061%=      5-min Rain = 0
KLE1 141536Z 15002KT 25/17 A3018 RMK A01 T02470165  RH  060%=      5-min Rain = 0
KLE1 141537Z 11002KT 25/16 A3018 RMK A01 T02480164  RH  060%=      5-min Rain = 0
KLE1 141538Z 15001KT 25/16 A3018 RMK A01 T02480164  RH  060%=      5-min Rain = 0
KLE1 141539Z 15001KT 25/17 A3018 RMK A01 T02480165  RH  060%=      5-min Rain = 0
KLE1 141540Z 16002KT 25/17 A3018 RMK A01 T02480165  RH  060%=      5-min Rain = 0
KLE1 141541Z 16002KT 25/17 A3017 RMK A01 T02480165  RH  060%=      5-min Rain = 0
KLE1 141542Z 16003KT 25/17 A3017 RMK A01 T02490166  RH  060%=      5-min Rain = 0
KLE1 141543Z 14003KT 25/17 A3017 RMK A01 T02500165  RH  059%=      5-min Rain = 0
KLE1 141544Z 14003KT 25/17 A3017 RMK A01 T02500166  RH  060%=      5-min Rain = 0
KLE1 141545Z 13002KT 25/17 A3017 RMK A01 T02510165  RH  059%=      5-min Rain = 0
KLE1 141546Z 13002KT 25/17 A3018 RMK A01 T02510165  RH  059%=      5-min Rain = 0
KLE1 141547Z 13002KT 25/17 A3018 RMK A01 T02500166  RH  060%=      5-min Rain = 0
KLE1 141548Z 14001KT 25/17 A3018 RMK A01 T02500167  RH  060%=      5-min Rain = 0
KLE1 141549Z 16000KT 25/17 A3018 RMK A01 T02500166  RH  060%=      5-min Rain = 0
KLE1 141550Z 17002KT 25/17 A3017 RMK A01 T02510168  RH  060%=      5-min Rain = 0
KLE1 141551Z 17003KT 25/17 A3017 RMK A01 T02520168  RH  060%=      5-min Rain = 0
KLE1 141552Z 17003KT 25/17 A3017 RMK A01 T02530169  RH  059%=      5-min Rain = 0
KLE1 141553Z 18004KT 25/17 A3017 RMK A01 T02540168  RH  059%=      5-min Rain = 0
KLE1 141554Z 19004KT 25/17 A3017 RMK A01 T02540168  RH  059%=      5-min Rain = 0
KLE1 141555Z 19004KT 25/17 A3017 RMK A01 T02530169  RH  059%=      5-min Rain = 0
KLE1 141556Z 19003KT 25/17 A3017 RMK A01 T02520168  RH  060%=      5-min Rain = 0
KLE1 141557Z 18003KT 25/17 A3017 RMK A01 T02520170  RH  060%=      5-min Rain = 0
KLE1 141558Z 21003KT 25/17 A3017 RMK A01 T02530169  RH  060%=      5-min Rain = 0
KLE1 141559Z 23003KT 25/17 A3017 RMK A01 T02520168  RH  060%=      5-min Rain = 0
KLE1 141600Z 25003KT 25/17 A3017 RMK A01 T02510169  RH  060%=      5-min Rain = 0
KLE1 141601Z 26001KT 25/17 A3017 RMK A01 T02510171  RH  061%=      5-min Rain = 0
KLE1 141602Z 25002KT 25/17 A3017 RMK A01 T02530171  RH  060%=      5-min Rain = 0
KLE1 141603Z 27002KT 25/17 A3017 RMK A01 T02540171  RH  060%=      5-min Rain = 0
KLE1 141604Z 31000KT 25/17 A3017 RMK A01 T02540171  RH  060%=      5-min Rain = 0
KLE1 141605Z 10000KT 25/17 A3017 RMK A01 T02540171  RH  060%=      5-min Rain = 0
KLE1 141606Z 10000KT 26/17 A3017 RMK A01 T02550171  RH  060%=      5-min Rain = 0
KLE1 141607Z 28004KT 26/17 A3017 RMK A01 T02560173  RH  060%=      5-min Rain = 0
KLE1 141608Z 28004KT 26/18 A3017 RMK A01 T02580175  RH  060%=      5-min Rain = 0
KLE1 141609Z 29005KT 26/17 A3017 RMK A01 T02590174  RH  060%=      5-min Rain = 0
KLE1 141610Z 28004KT 26/18 A3018 RMK A01 T02580175  RH  060%=      5-min Rain = 0
KLE1 141611Z 29005KT 26/18 A3018 RMK A01 T02600176  RH  060%=      5-min Rain = 0
KLE1 141612Z 29006KT 26/18 A3018 RMK A01 T02630175  RH  058%=      5-min Rain = 0
KLE1 141613Z 27006KT 26/18 A3018 RMK A01 T02630176  RH  059%=      5-min Rain = 0
KLE1 141614Z 26004KT 26/17 A3018 RMK A01 T02620172  RH  058%=      5-min Rain = 0
KLE1 141615Z 30003KT 26/17 A3018 RMK A01 T02600173  RH  059%=      5-min Rain = 0
KLE1 141616Z 33005KT 26/17 A3018 RMK A01 T02610174  RH  059%=      5-min Rain = 0
KLE1 141617Z 33004KT 26/17 A3018 RMK A01 T02620174  RH  058%=      5-min Rain = 0
KLE1 141618Z 29003KT 26/18 A3018 RMK A01 T02630176  RH  059%=      5-min Rain = 0
KLE1 141619Z 26003KT 26/18 A3018 RMK A01 T02630177  RH  059%=      5-min Rain = 0
KLE1 141620Z 31003KT 26/18 A3018 RMK A01 T02630178  RH  059%=      5-min Rain = 0
KLE1 141621Z 33003KT 26/18 A3018 RMK A01 T02640179  RH  059%=      5-min Rain = 0
KLE1 141622Z 34002KT 27/18 A3018 RMK A01 T02660178  RH  058%=      5-min Rain = 0
KLE1 141623Z 36002KT 27/18 A3018 RMK A01 T02660178  RH  059%=      5-min Rain = 0
KLE1 141624Z 01002KT 26/18 A3018 RMK A01 T02640178  RH  059%=      5-min Rain = 0
KLE1 141625Z 36004KT 26/18 A3018 RMK A01 T02640179  RH  060%=      5-min Rain = 0
KLE1 141626Z 36004KT 27/18 A3018 RMK A01 T02660181  RH  060%=      5-min Rain = 0
KLE1 141627Z 01004KT 27/18 A3018 RMK A01 T02680179  RH  058%=      5-min Rain = 0
KLE1 141628Z 01004KT 27/18 A3018 RMK A01 T02690180  RH  058%=      5-min Rain = 0
KLE1 141629Z 00005KT 27/18 A3018 RMK A01 T02690180  RH  058%=      5-min Rain = 0
KLE1 141630Z 02004KT 27/18 A3018 RMK A01 T02690179  RH  058%=      5-min Rain = 0
KLE1 141631Z 04003KT 27/18 A3018 RMK A01 T02700180  RH  058%=      5-min Rain = 0
KLE1 141632Z 02002KT 27/18 A3018 RMK A01 T02710179  RH  057%=      5-min Rain = 0
KLE1 141633Z 34002KT 27/18 A3018 RMK A01 T02720181  RH  057%=      5-min Rain = 0
KLE1 141634Z 01004KT 27/18 A3018 RMK A01 T02710180  RH  057%=      5-min Rain = 0
KLE1 141635Z 02004KT 27/18 A3018 RMK A01 T02710179  RH  057%=      5-min Rain = 0
KLE1 141636Z 06001KT 27/18 A3018 RMK A01 T02710177  RH  057%=      5-min Rain = 0
KLE1 141637Z 36002KT 27/18 A3018 RMK A01 T02710179  RH  057%=      5-min Rain = 0
KLE1 141638Z 34006KT 27/18 A3018 RMK A01 T02720178  RH  056%=      5-min Rain = 0
KLE1 141639Z 34006KT 28/18 A3018 RMK A01 T02750179  RH  056%=      5-min Rain = 0
KLE1 141640Z 32005KT 28/18 A3018 RMK A01 T02760178  RH  055%=      5-min Rain = 0
KLE1 141641Z 33005KT 28/18 A3018 RMK A01 T02750177  RH  055%=      5-min Rain = 0
KLE1 141642Z 33005KT 27/18 A3019 RMK A01 T02730177  RH  056%=      5-min Rain = 0
KLE1 141643Z 31005KT 27/18 A3019 RMK A01 T02720178  RH  056%=      5-min Rain = 0
KLE1 141644Z 33006KT 27/18 A3019 RMK A01 T02720180  RH  057%=      5-min Rain = 0
KLE1 141645Z 33005KT 27/18 A3019 RMK A01 T02720180  RH  057%=      5-min Rain = 0
KLE1 141646Z 32004KT 27/18 A3019 RMK A01 T02720179  RH  057%=      5-min Rain = 0
KLE1 141647Z 33005KT 27/18 A3019 RMK A01 T02700179  RH  057%=      5-min Rain = 0
KLE1 141648Z 30003KT 27/18 A3019 RMK A01 T02710180  RH  058%=      5-min Rain = 0
KLE1 141649Z 30007KT 27/18 A3019 RMK A01 T02740182  RH  057%=      5-min Rain = 0
KLE1 141650Z 31007KT 28/18 A3019 RMK A01 T02780181  RH  055%=      5-min Rain = 0
KLE1 141651Z 31007KT 28/18 A3018 RMK A01 T02790180  RH  055%=      5-min Rain = 0
KLE1 141652Z 31008KT 28/18 A3018 RMK A01 T02790181  RH  055%=      5-min Rain = 0
KLE1 141653Z 30007KT 28/18 A3018 RMK A01 T02800179  RH  054%=      5-min Rain = 0
KLE1 141654Z 31004KT 28/18 A3018 RMK A01 T02790177  RH  054%=      5-min Rain = 0
KLE1 141655Z 31003KT 28/18 A3018 RMK A01 T02770177  RH  054%=      5-min Rain = 0
KLE1 141656Z 31005KT 28/18 A3018 RMK A01 T02770179  RH  055%=      5-min Rain = 0
KLE1 141657Z 32004KT 28/18 A3018 RMK A01 T02800177  RH  054%=      5-min Rain = 0
KLE1 141658Z 33004KT 28/18 A3018 RMK A01 T02820180  RH  054%=      5-min Rain = 0
KLE1 141659Z 34005KT 29/18 A3018 RMK A01 T02870181  RH  053%=      5-min Rain = 0
KLE1 141700Z 35004KT 29/18 A3018 RMK A01 T02900178  RH  051%=      5-min Rain = 0
KLE1 141701Z 34007KT 29/18 A3018 RMK A01 T02910179  RH  051%=      5-min Rain = 0
KLE1 141702Z 33006KT 29/18 A3018 RMK A01 T02920180  RH  051%=      5-min Rain = 0
KLE1 141703Z 33005KT 30/18 A3018 RMK A01 T02950179  RH  050%=      5-min Rain = 0
KLE1 141704Z 30004KT 30/18 A3018 RMK A01 T02960178  RH  049%=      5-min Rain = 0
KLE1 141705Z 30002KT 29/18 A3018 RMK A01 T02940178  RH  050%=      5-min Rain = 0
KLE1 141706Z 33005KT 29/18 A3018 RMK A01 T02930179  RH  050%=      5-min Rain = 0
KLE1 141707Z 32006KT 29/18 A3018 RMK A01 T02940179  RH  050%=      5-min Rain = 0
KLE1 141708Z 33005KT 30/18 A3017 RMK A01 T02980178  RH  049%=      5-min Rain = 0
KLE1 141709Z 36004KT 30/18 A3017 RMK A01 T02990179  RH  049%=      5-min Rain = 0
KLE1 141710Z 33008KT 30/18 A3017 RMK A01 T03000179  RH  048%=      5-min Rain = 0
KLE1 141711Z 34007KT 30/18 A3017 RMK A01 T03010178  RH  048%=      5-min Rain = 0
KLE1 141712Z 01003KT 30/18 A3017 RMK A01 T02990175  RH  048%=      5-min Rain = 0
KLE1 141713Z 29004G9KT 30/18 A3017 RMK A01 T02970178  RH  049%=      5-min Rain = 0
KLE1 141714Z 28007KT 30/18 A3017 RMK A01 T02970176  RH  048%=      5-min Rain = 0
KLE1 141715Z 27004KT 30/18 A3017 RMK A01 T02960176  RH  048%=      5-min Rain = 0
KLE1 141716Z 26004KT 30/18 A3017 RMK A01 T02950178  RH  049%=      5-min Rain = 0
KLE1 141717Z 25004KT 30/18 A3017 RMK A01 T02980178  RH  048%=      5-min Rain = 0
KLE1 141718Z 31004KT 30/18 A3017 RMK A01 T02990178  RH  048%=      5-min Rain = 0
KLE1 141719Z 34005KT 30/18 A3017 RMK A01 T03010178  RH  048%=      5-min Rain = 0
KLE1 141720Z 35003KT 30/18 A3017 RMK A01 T03010178  RH  048%=      5-min Rain = 0
KLE1 141721Z 31004KT 30/18 A3017 RMK A01 T03000179  RH  048%=      5-min Rain = 0
KLE1 141722Z 30004KT 30/18 A3017 RMK A01 T03000178  RH  048%=      5-min Rain = 0
KLE1 141723Z 30005KT 30/18 A3017 RMK A01 T02990178  RH  048%=      5-min Rain = 0
KLE1 141724Z 30005KT 30/18 A3016 RMK A01 T02970176  RH  048%=      5-min Rain = 0
KLE1 141725Z 31004KT 30/18 A3016 RMK A01 T02960176  RH  049%=      5-min Rain = 0
KLE1 141726Z 35006KT 30/17 A3016 RMK A01 T02960173  RH  048%=      5-min Rain = 0
KLE1 141727Z 01006KT 30/17 A3016 RMK A01 T02970173  RH  047%=      5-min Rain = 0
KLE1 141728Z 01005KT 30/17 A3016 RMK A01 T03000173  RH  047%=      5-min Rain = 0
KLE1 141729Z 36007KT 30/17 A3016 RMK A01 T03020174  RH  046%=      5-min Rain = 0
KLE1 141730Z 35006KT 31/18 A3016 RMK A01 T03050176  RH  046%=      5-min Rain = 0
KLE1 141731Z 30008KT 31/18 A3016 RMK A01 T03090178  RH  045%=      5-min Rain = 0
KLE1 141732Z 31006KT 31/18 A3016 RMK A01 T03110177  RH  045%=      5-min Rain = 0
KLE1 141733Z 32005KT 31/18 A3016 RMK A01 T03120179  RH  045%=      5-min Rain = 0
KLE1 141734Z 33004KT 31/18 A3016 RMK A01 T03140177  RH  044%=      5-min Rain = 0
KLE1 141735Z 33007KT 31/18 A3016 RMK A01 T03140179  RH  045%=      5-min Rain = 0
KLE1 141736Z 34007G13KT 31/18 A3016 RMK A01 T03140178  RH  044%=      5-min Rain = 0
KLE1 141737Z 02004KT 31/18 A3016 RMK A01 T03140176  RH  044%=      5-min Rain = 0
KLE1 141738Z 03005KT 31/18 A3016 RMK A01 T03140177  RH  044%=      5-min Rain = 0
KLE1 141739Z 04003KT 32/18 A3016 RMK A01 T03150177  RH  044%=      5-min Rain = 0
KLE1 141740Z 05003KT 32/18 A3015 RMK A01 T03150176  RH  044%=      5-min Rain = 0
KLE1 141741Z 29005KT 32/18 A3015 RMK A01 T03150178  RH  044%=      5-min Rain = 0
KLE1 141742Z 28004KT 31/18 A3015 RMK A01 T03130176  RH  044%=      5-min Rain = 0
KLE1 141743Z 27004KT 31/18 A3015 RMK A01 T03110177  RH  045%=      5-min Rain = 0
KLE1 141744Z 26003KT 31/18 A3015 RMK A01 T03100175  RH  044%=      5-min Rain = 0
KLE1 141745Z 26004KT 31/18 A3015 RMK A01 T03090176  RH  045%=      5-min Rain = 0
KLE1 141746Z 27002KT 31/17 A3015 RMK A01 T03060174  RH  045%=      5-min Rain = 0
KLE1 141747Z 02005G10KT 31/17 A3015 RMK A01 T03050174  RH  045%=      5-min Rain = 0
KLE1 141748Z 02006KT 31/17 A3015 RMK A01 T03060167  RH  043%=      5-min Rain = 0
KLE1 141749Z 02007KT 31/17 A3015 RMK A01 T03090167  RH  043%=      5-min Rain = 0
KLE1 141750Z 35010KT 31/17 A3015 RMK A01 T03090167  RH  042%=      5-min Rain = 0
KLE1 141751Z 35008KT 31/17 A3015 RMK A01 T03100166  RH  042%=      5-min Rain = 0
KLE1 141752Z 34008KT 31/17 A3015 RMK A01 T03100168  RH  042%=      5-min Rain = 0
KLE1 141753Z 34008G14KT 31/17 A3015 RMK A01 T03130167  RH  041%=      5-min Rain = 0
KLE1 141754Z 35008KT 31/17 A3015 RMK A01 T03140166  RH  041%=      5-min Rain = 0
KLE1 141755Z 34006KT 31/17 A3015 RMK A01 T03120165  RH  041%=      5-min Rain = 0
KLE1 141756Z 32008KT 31/17 A3015 RMK A01 T03120167  RH  042%=      5-min Rain = 0
KLE1 141757Z 28005KT 31/17 A3014 RMK A01 T03120166  RH  041%=      5-min Rain = 0
KLE1 141758Z 28006KT 31/17 A3014 RMK A01 T03120167  RH  042%=      5-min Rain = 0
KLE1 141759Z 30008KT 31/17 A3014 RMK A01 T03130168  RH  042%=      5-min Rain = 0
KLE1 141800Z 32008KT 31/17 A3014 RMK A01 T03140165  RH  041%=      5-min Rain = 0
KLE1 141801Z 34007KT 31/17 A3014 RMK A01 T03140168  RH  042%=      5-min Rain = 0
KLE1 141802Z 01008KT 32/17 A3014 RMK A01 T03180171  RH  041%=      5-min Rain = 0
KLE1 141803Z 01006KT 32/17 A3014 RMK A01 T03200168  RH  040%=      5-min Rain = 0
KLE1 141804Z 36006KT 32/17 A3014 RMK A01 T03190170  RH  041%=      5-min Rain = 0
KLE1 141805Z 00009KT 32/17 A3014 RMK A01 T03180169  RH  041%=      5-min Rain = 0
KLE1 141806Z 36009KT 32/17 A3014 RMK A01 T03170168  RH  041%=      5-min Rain = 0
KLE1 141807Z 34010KT 32/17 A3014 RMK A01 T03160169  RH  041%=      5-min Rain = 0
KLE1 141808Z 34010KT 32/17 A3014 RMK A01 T03160169  RH  041%=      5-min Rain = 0
KLE1 141809Z 32008KT 32/17 A3014 RMK A01 T03160167  RH  041%=      5-min Rain = 0
KLE1 141810Z 34003KT 32/17 A3014 RMK A01 T03150168  RH  041%=      5-min Rain = 0
KLE1 141811Z 00003KT 32/17 A3014 RMK A01 T03160167  RH  041%=      5-min Rain = 0
KLE1 141812Z 35007KT 32/17 A3014 RMK A01 T03160167  RH  041%=      5-min Rain = 0
KLE1 141813Z 01007KT 32/17 A3014 RMK A01 T03170168  RH  041%=      5-min Rain = 0
KLE1 141814Z 03010KT 33/17 A3014 RMK A01 T03250165  RH  038%=      5-min Rain = 0
KLE1 141815Z 04010KT 33/16 A3013 RMK A01 T03260160  RH  037%=      5-min Rain = 0
KLE1 141816Z 05009KT 32/16 A3013 RMK A01 T03240162  RH  038%=      5-min Rain = 0
KLE1 141817Z 05009KT 33/16 A3013 RMK A01 T03260163  RH  038%=      5-min Rain = 0
KLE1 141818Z 04010KT 33/16 A3013 RMK A01 T03270163  RH  038%=      5-min Rain = 0
KLE1 141819Z 05010KT 33/16 A3013 RMK A01 T03270163  RH  038%=      5-min Rain = 0
KLE1 141820Z 05007KT 33/16 A3013 RMK A01 T03250161  RH  037%=      5-min Rain = 0
KLE1 141821Z 03008KT 32/16 A3013 RMK A01 T03230161  RH  038%=      5-min Rain = 0
KLE1 141822Z 04009KT 32/16 A3013 RMK A01 T03220163  RH  039%=      5-min Rain = 0
KLE1 141823Z 04005KT 32/16 A3013 RMK A01 T03230162  RH  038%=      5-min Rain = 0
KLE1 141824Z 05005KT 32/16 A3013 RMK A01 T03210162  RH  038%=      5-min Rain = 0
KLE1 141825Z 07006KT 32/16 A3013 RMK A01 T03200162  RH  039%=      5-min Rain = 0
KLE1 141826Z 08005KT 32/16 A3013 RMK A01 T03200161  RH  038%=      5-min Rain = 0
KLE1 141827Z 11006KT 32/16 A3013 RMK A01 T03180160  RH  039%=      5-min Rain = 0
KLE1 141828Z 14003KT 31/16 A3013 RMK A01 T03140159  RH  039%=      5-min Rain = 0
KLE1 141829Z 16003KT 31/16 A3013 RMK A01 T03110160  RH  040%=      5-min Rain = 0
KLE1 141830Z 20002KT 31/16 A3013 RMK A01 T03100161  RH  041%=      5-min Rain = 0
KLE1 141831Z 14002KT 31/16 A3013 RMK A01 T03110162  RH  041%=      5-min Rain = 0
KLE1 141832Z 09003KT 31/16 A3013 RMK A01 T03130162  RH  040%=      5-min Rain = 0
KLE1 141833Z 08002KT 32/17 A3014 RMK A01 T03160165  RH  040%=      5-min Rain = 0
KLE1 141834Z 01004KT 32/17 A3014 RMK A01 T03210166  RH  040%=      5-min Rain = 0
KLE1 141835Z 05003KT 32/16 A3014 RMK A01 T03230163  RH  038%=      5-min Rain = 0
KLE1 141836Z 08003KT 32/16 A3013 RMK A01 T03200161  RH  038%=      5-min Rain = 0
KLE1 141837Z 36002KT 32/16 A3013 RMK A01 T03180164  RH  040%=      5-min Rain = 0
KLE1 141838Z 03001KT 32/16 A3013 RMK A01 T03190162  RH  039%=      5-min Rain = 0
KLE1 141839Z 03003KT 32/16 A3013 RMK A01 T03200164  RH  039%=      5-min Rain = 0
KLE1 141840Z 00008KT 32/17 A3013 RMK A01 T03220165  RH  039%=      5-min Rain = 0
KLE1 141841Z 35010KT 32/17 A3013 RMK A01 T03230166  RH  039%=      5-min Rain = 0
KLE1 141842Z 36006G13KT 32/16 A3013 RMK A01 T03240164  RH  038%=      5-min Rain = 0
KLE1 141843Z 01007KT 32/16 A3013 RMK A01 T03220164  RH  039%=      5-min Rain = 0
KLE1 141844Z 35006KT 32/17 A3013 RMK A01 T03200165  RH  039%=      5-min Rain = 0
KLE1 141845Z 34004KT 32/17 A3013 RMK A01 T03220165  RH  039%=      5-min Rain = 0
KLE1 141846Z 01005KT 32/17 A3013 RMK A01 T03230165  RH  039%=      5-min Rain = 0
KLE1 141847Z 04005KT 32/16 A3013 RMK A01 T03240163  RH  038%=      5-min Rain = 0
KLE1 141848Z 05005KT 32/16 A3012 RMK A01 T03200163  RH  039%=      5-min Rain = 0
KLE1 141849Z 02002KT 32/16 A3012 RMK A01 T03190163  RH  039%=      5-min Rain = 0
KLE1 141850Z 05001KT 32/17 A3012 RMK A01 T03190166  RH  040%=      5-min Rain = 0
KLE1 141851Z 28002KT 32/17 A3012 RMK A01 T03230166  RH  039%=      5-min Rain = 0
KLE1 141852Z 28004KT 33/16 A3012 RMK A01 T03250164  RH  038%=      5-min Rain = 0
KLE1 141853Z 28004KT 33/16 A3012 RMK A01 T03260163  RH  038%=      5-min Rain = 0
KLE1 141854Z 26002KT 33/16 A3012 RMK A01 T03250162  RH  038%=      5-min Rain = 0
KLE1 141855Z 22002KT 32/16 A3012 RMK A01 T03240162  RH  038%=      5-min Rain = 0
KLE1 141856Z 23001KT 32/16 A3012 RMK A01 T03240163  RH  038%=      5-min Rain = 0
KLE1 141857Z 03002KT 33/16 A3012 RMK A01 T03250163  RH  038%=      5-min Rain = 0
KLE1 141858Z 02006KT 33/16 A3012 RMK A01 T03250163  RH  038%=      5-min Rain = 0
KLE1 141859Z 01005KT 33/17 A3012 RMK A01 T03250165  RH  038%=      5-min Rain = 0
KLE1 141900Z 02003KT 33/16 A3012 RMK A01 T03250164  RH  038%=      5-min Rain = 0
KLE1 141901Z 34001KT 32/16 A3012 RMK A01 T03230162  RH  038%=      5-min Rain = 0
KLE1 141902Z 35007KT 32/16 A3012 RMK A01 T03210164  RH  039%=      5-min Rain = 0
KLE1 141903Z 34006KT 32/17 A3012 RMK A01 T03220165  RH  039%=      5-min Rain = 0
KLE1 141904Z 34006KT 33/17 A3012 RMK A01 T03250165  RH  038%=      5-min Rain = 0
KLE1 141905Z 33007KT 33/17 A3012 RMK A01 T03250165  RH  038%=      5-min Rain = 0
KLE1 141906Z 34005KT 32/16 A3012 RMK A01 T03240164  RH  038%=      5-min Rain = 0
KLE1 141907Z 31004KT 32/16 A3012 RMK A01 T03220163  RH  038%=      5-min Rain = 0
KLE1 141908Z 30005KT 32/16 A3012 RMK A01 T03200164  RH  039%=      5-min Rain = 0
KLE1 141909Z 30003KT 32/16 A3012 RMK A01 T03200163  RH  039%=      5-min Rain = 0
KLE1 141910Z 24003KT 32/17 A3012 RMK A01 T03200165  RH  039%=      5-min Rain = 0
KLE1 141911Z 21004KT 32/16 A3012 RMK A01 T03220163  RH  039%=      5-min Rain = 0
KLE1 141912Z 19004KT 32/16 A3012 RMK A01 T03210162  RH  038%=      5-min Rain = 0
KLE1 141913Z 19002KT 32/16 A3012 RMK A01 T03170162  RH  039%=      5-min Rain = 0
KLE1 141914Z 16003KT 32/16 A3011 RMK A01 T03170163  RH  039%=      5-min Rain = 0
KLE1 141915Z 17005KT 32/16 A3011 RMK A01 T03190164  RH  039%=      5-min Rain = 0
KLE1 141916Z 18004KT 32/16 A3011 RMK A01 T03210162  RH  039%=      5-min Rain = 0
KLE1 141917Z 19003KT 32/16 A3011 RMK A01 T03200163  RH  039%=      5-min Rain = 0
KLE1 141918Z 22004KT 32/16 A3011 RMK A01 T03200164  RH  039%=      5-min Rain = 0
KLE1 141919Z 25002KT 32/16 A3011 RMK A01 T03200163  RH  039%=      5-min Rain = 0
KLE1 141920Z 19003KT 32/16 A3011 RMK A01 T03190163  RH  039%=      5-min Rain = 0
KLE1 141921Z 16007KT 32/17 A3011 RMK A01 T03230167  RH  039%=      5-min Rain = 0
KLE1 141922Z 19005KT 33/16 A3011 RMK A01 T03270164  RH  038%=      5-min Rain = 0
KLE1 141923Z 20005KT 33/17 A3011 RMK A01 T03250166  RH  038%=      5-min Rain = 0
KLE1 141924Z 21004KT 33/16 A3011 RMK A01 T03250163  RH  038%=      5-min Rain = 0
KLE1 141925Z 24003KT 32/16 A3011 RMK A01 T03230163  RH  038%=      5-min Rain = 0
KLE1 141926Z 23003KT 32/16 A3011 RMK A01 T03230163  RH  038%=      5-min Rain = 0
KLE1 141927Z 18004KT 32/16 A3011 RMK A01 T03220164  RH  039%=      5-min Rain = 0
KLE1 141928Z 12005KT 32/17 A3011 RMK A01 T03240166  RH  039%=      5-min Rain = 0
KLE1 141929Z 11006KT 33/17 A3011 RMK A01 T03270170  RH  039%=      5-min Rain = 0
KLE1 141930Z 13004KT 33/17 A301 RMK A01 T03310169  RH  038%=      5-min Rain = 0
KLE1 141931Z 14007KT 33/17 A301 RMK A01 T03310169  RH  038%=      5-min Rain = 0
KLE1 141932Z 13008KT 33/17 A301 RMK A01 T03290167  RH  038%=      5-min Rain = 0
KLE1 141933Z 14008KT 33/17 A301 RMK A01 T03280168  RH  038%=      5-min Rain = 0
KLE1 141934Z 13008KT 33/17 A301 RMK A01 T03290167  RH  038%=      5-min Rain = 0
KLE1 141935Z 14006KT 33/17 A301 RMK A01 T03270167  RH  038%=      5-min Rain = 0
KLE1 141936Z 11011KT 33/17 A301 RMK A01 T03250170  RH  040%=      5-min Rain = 0
KLE1 141937Z 11010KT 33/17 A301 RMK A01 T03310172  RH  039%=      5-min Rain = 0
KLE1 141938Z 10011KT 33/17 A301 RMK A01 T03340168  RH  037%=      5-min Rain = 0
KLE1 141939Z 10010KT 33/17 A301 RMK A01 T03330166  RH  037%=      5-min Rain = 0
KLE1 141940Z 10010KT 33/17 A301 RMK A01 T03320166  RH  037%=      5-min Rain = 0
KLE1 141941Z 12010KT 33/17 A301 RMK A01 T03320167  RH  037%=      5-min Rain = 0
KLE1 141942Z 12010KT 33/17 A301 RMK A01 T03330166  RH  037%=      5-min Rain = 0
KLE1 141943Z 12005KT 33/17 A301 RMK A01 T03310166  RH  037%=      5-min Rain = 0
KLE1 141944Z 12008KT 33/17 A301 RMK A01 T03310169  RH  038%=      5-min Rain = 0
KLE1 141945Z 12009KT 34/17 A301 RMK A01 T03350170  RH  037%=      5-min Rain = 0
KLE1 141946Z 12011KT 33/17 A301 RMK A01 T03330170  RH  038%=      5-min Rain = 0
KLE1 141947Z 12008KT 33/17 A301 RMK A01 T03320167  RH  037%=      5-min Rain = 0
KLE1 141948Z 12008KT 33/17 A301 RMK A01 T03310169  RH  038%=      5-min Rain = 0
KLE1 141949Z 08009KT 33/17 A301 RMK A01 T03320169  RH  038%=      5-min Rain = 0
KLE1 141950Z 08007KT 33/17 A301 RMK A01 T03320166  RH  037%=      5-min Rain = 0
KLE1 141951Z 13006KT 33/17 A301 RMK A01 T03310168  RH  038%=      5-min Rain = 0
KLE1 141952Z 09003KT 33/17 A301 RMK A01 T03290167  RH  038%=      5-min Rain = 0
KLE1 141953Z 12002KT 33/17 A301 RMK A01 T03280166  RH  038%=      5-min Rain = 0
KLE1 141954Z 15002KT 33/17 A301 RMK A01 T03270166  RH  038%=      5-min Rain = 0
KLE1 141955Z 15004KT 33/17 A301 RMK A01 T03260169  RH  039%=      5-min Rain = 0
KLE1 141956Z 17005KT 33/17 A301 RMK A01 T03270170  RH  039%=      5-min Rain = 0
KLE1 141957Z 16005KT 33/17 A301 RMK A01 T03290171  RH  039%=      5-min Rain = 0
KLE1 141958Z 16004KT 33/17 A301 RMK A01 T03320170  RH  038%=      5-min Rain = 0
KLE1 141959Z 16004KT 33/17 A301 RMK A01 T03320171  RH  038%=      5-min Rain = 0
KLE1 142000Z 12003KT 33/17 A301 RMK A01 T03330171  RH  038%=      5-min Rain = 0
KLE1 142001Z 11008G17KT 33/17 A301 RMK A01 T03310174  RH  039%=      5-min Rain = 0
KLE1 142002Z 10009KT 33/18 A301 RMK A01 T03340176  RH  039%=      5-min Rain = 0
KLE1 142003Z 11009KT 33/17 A301 RMK A01 T03340174  RH  039%=      5-min Rain = 0
KLE1 142004Z 12008KT 33/17 A301 RMK A01 T03300174  RH  039%=      5-min Rain = 0
KLE1 142005Z 08006KT 33/18 A301 RMK A01 T03300176  RH  040%=      5-min Rain = 0
KLE1 142006Z 08007KT 33/18 A301 RMK A01 T03310175  RH  039%=      5-min Rain = 0
KLE1 142007Z 09004KT 33/17 A301 RMK A01 T03320174  RH  039%=      5-min Rain = 0
KLE1 142008Z 09003KT 33/17 A301 RMK A01 T03300173  RH  039%=      5-min Rain = 0
KLE1 142009Z 10007KT 33/17 A301 RMK A01 T03290174  RH  040%=      5-min Rain = 0
KLE1 142010Z 09009KT 33/17 A301 RMK A01 T03290173  RH  039%=      5-min Rain = 0
KLE1 142011Z 10008KT 33/17 A301 RMK A01 T03310173  RH  039%=      5-min Rain = 0
KLE1 142012Z 10009KT 33/17 A301 RMK A01 T03310173  RH  039%=      5-min Rain = 0
KLE1 142013Z 11010KT 33/17 A301 RMK A01 T03310174  RH  039%=      5-min Rain = 0
KLE1 142014Z 11010KT 33/18 A301 RMK A01 T03320177  RH  040%=      5-min Rain = 0
KLE1 142015Z 09009KT 33/18 A301 RMK A01 T03310177  RH  040%=      5-min Rain = 0
KLE1 142016Z 10008KT 33/18 A3009 RMK A01 T03310177  RH  040%=      5-min Rain = 0
KLE1 142017Z 10006KT 33/18 A3009 RMK A01 T03310177  RH  040%=      5-min Rain = 0
KLE1 142018Z 10005KT 33/18 A3009 RMK A01 T03280176  RH  040%=      5-min Rain = 0
KLE1 142019Z 14007KT 33/18 A3009 RMK A01 T03300176  RH  040%=      5-min Rain = 0
KLE1 142020Z 17005KT 33/17 A3009 RMK A01 T03310171  RH  039%=      5-min Rain = 0
KLE1 142021Z 16006KT 33/17 A3009 RMK A01 T03310172  RH  039%=      5-min Rain = 0
KLE1 142022Z 17005KT 33/17 A3009 RMK A01 T03300172  RH  039%=      5-min Rain = 0
KLE1 142023Z 18004KT 33/17 A3009 RMK A01 T03290170  RH  039%=      5-min Rain = 0
KLE1 142024Z 14005KT 33/17 A3009 RMK A01 T03270174  RH  040%=      5-min Rain = 0
KLE1 142025Z 13006KT 33/18 A3009 RMK A01 T03320175  RH  039%=      5-min Rain = 0
KLE1 142026Z 12006KT 34/17 A3009 RMK A01 T03350172  RH  038%=      5-min Rain = 0
KLE1 142027Z 14003KT 33/17 A3009 RMK A01 T03330169  RH  038%=      5-min Rain = 0
KLE1 142028Z 13004KT 33/17 A3009 RMK A01 T03300170  RH  038%=      5-min Rain = 0
KLE1 142029Z 16003KT 33/17 A3009 RMK A01 T03280172  RH  040%=      5-min Rain = 0
KLE1 142030Z 14003KT 33/17 A3009 RMK A01 T03280170  RH  039%=      5-min Rain = 0
KLE1 142031Z 13005KT 33/17 A3008 RMK A01 T03270172  RH  040%=      5-min Rain = 0
KLE1 142032Z 14005KT 33/17 A3008 RMK A01 T03290169  RH  039%=      5-min Rain = 0
KLE1 142033Z 10005KT 33/17 A3008 RMK A01 T03300171  RH  039%=      5-min Rain = 0
KLE1 142034Z 09005KT 34/17 A3008 RMK A01 T03350173  RH  038%=      5-min Rain = 0
KLE1 142035Z 08004KT 34/17 A3008 RMK A01 T03350170  RH  037%=      5-min Rain = 0
KLE1 142036Z 06004KT 33/17 A3008 RMK A01 T03320169  RH  038%=      5-min Rain = 0
KLE1 142037Z 07003KT 33/17 A3008 RMK A01 T03280169  RH  038%=      5-min Rain = 0
KLE1 142038Z 04004KT 33/17 A3008 RMK A01 T03290169  RH  038%=      5-min Rain = 0
KLE1 142039Z 05003KT 33/17 A3008 RMK A01 T03300169  RH  038%=      5-min Rain = 0
KLE1 142040Z 06000KT 33/17 A3008 RMK A01 T03310171  RH  039%=      5-min Rain = 0
KLE1 142041Z 33001KT 33/17 A3008 RMK A01 T03310171  RH  039%=      5-min Rain = 0
KLE1 142042Z 31000KT 33/17 A3008 RMK A01 T03290172  RH  039%=      5-min Rain = 0
KLE1 142043Z 30003KT 33/17 A3008 RMK A01 T03280171  RH  039%=      5-min Rain = 0
KLE1 142044Z 30001KT 33/17 A3008 RMK A01 T03270171  RH  039%=      5-min Rain = 0
KLE1 142045Z 28001KT 33/17 A3008 RMK A01 T03260170  RH  039%=      5-min Rain = 0
KLE1 142046Z 14003KT 33/17 A3008 RMK A01 T03260171  RH  040%=      5-min Rain = 0
KLE1 142047Z 14004KT 33/18 A3008 RMK A01 T03300175  RH  040%=      5-min Rain = 0
KLE1 142048Z 15003KT 33/17 A3008 RMK A01 T03340173  RH  038%=      5-min Rain = 0
KLE1 142049Z 12006KT 34/17 A3007 RMK A01 T03360172  RH  038%=      5-min Rain = 0
KLE1 142050Z 13005KT 34/17 A3007 RMK A01 T03360169  RH  037%=      5-min Rain = 0
KLE1 142051Z 11005KT 33/17 A3007 RMK A01 T03340165  RH  036%=      5-min Rain = 0
KLE1 142052Z 09005KT 33/16 A3007 RMK A01 T03330159  RH  035%=      5-min Rain = 0
KLE1 142053Z 09003KT 34/16 A3007 RMK A01 T03360161  RH  035%=      5-min Rain = 0
KLE1 142054Z 11006KT 34/16 A3007 RMK A01 T03410162  RH  034%=      5-min Rain = 0
KLE1 142055Z 12002KT 34/16 A3007 RMK A01 T03410157  RH  033%=      5-min Rain = 0
KLE1 142056Z 19003KT 34/16 A3007 RMK A01 T03380156  RH  034%=      5-min Rain = 0
KLE1 142057Z 19001KT 34/16 A3007 RMK A01 T03370155  RH  034%=      5-min Rain = 0
KLE1 142058Z 08001KT 34/16 A3007 RMK A01 T03370155  RH  034%=      5-min Rain = 0
KLE1 142059Z 10001KT 34/16 A3007 RMK A01 T03380155  RH  033%=      5-min Rain = 0
KLE1 142100Z 07005KT 34/16 A3007 RMK A01 T03390158  RH  034%=      5-min Rain = 0
KLE1 142101Z 08005KT 34/16 A3007 RMK A01 T03400162  RH  035%=      5-min Rain = 0
KLE1 142102Z 12006KT 34/17 A3007 RMK A01 T03400166  RH  036%=      5-min Rain = 0
KLE1 142103Z 14006KT 34/17 A3007 RMK A01 T03380167  RH  036%=      5-min Rain = 0
KLE1 142104Z 13004KT 34/17 A3007 RMK A01 T03360165  RH  036%=      5-min Rain = 0
KLE1 142105Z 13007KT 34/17 A3007 RMK A01 T03350166  RH  037%=      5-min Rain = 0
KLE1 142106Z 14005KT 34/17 A3007 RMK A01 T03370165  RH  036%=      5-min Rain = 0
KLE1 142107Z 15003KT 34/17 A3007 RMK A01 T03360166  RH  036%=      5-min Rain = 0
KLE1 142108Z 13003KT 34/17 A3007 RMK A01 T03350166  RH  037%=      5-min Rain = 0
KLE1 142109Z 13006KT 34/17 A3007 RMK A01 T03360167  RH  036%=      5-min Rain = 0
KLE1 142110Z 13006KT 34/17 A3007 RMK A01 T03390170  RH  036%=      5-min Rain = 0
KLE1 142111Z 16006KT 34/17 A3007 RMK A01 T03430168  RH  035%=      5-min Rain = 0
KLE1 142112Z 16005KT 34/17 A3007 RMK A01 T03440167  RH  035%=      5-min Rain = 0
KLE1 142113Z 18006KT 35/17 A3007 RMK A01 T03450165  RH  034%=      5-min Rain = 0
KLE1 142114Z 19005KT 34/17 A3007 RMK A01 T03430165  RH  035%=      5-min Rain = 0
KLE1 142115Z 17006KT 34/16 A3006 RMK A01 T03410164  RH  035%=      5-min Rain = 0
KLE1 142116Z 16004KT 34/16 A3006 RMK A01 T03380161  RH  035%=      5-min Rain = 0
KLE1 142117Z 17006KT 34/16 A3006 RMK A01 T03360162  RH  035%=      5-min Rain = 0
KLE1 142118Z 17003KT 34/16 A3006 RMK A01 T03360163  RH  035%=      5-min Rain = 0
KLE1 142119Z 19004KT 34/16 A3006 RMK A01 T03360163  RH  036%=      5-min Rain = 0
KLE1 142120Z 13003KT 34/16 A3006 RMK A01 T03380164  RH  035%=      5-min Rain = 0
KLE1 142121Z 13005KT 34/16 A3006 RMK A01 T03410164  RH  035%=      5-min Rain = 0
KLE1 142122Z 13007KT 34/16 A3006 RMK A01 T03420164  RH  035%=      5-min Rain = 0
KLE1 142123Z 13004KT 34/16 A3006 RMK A01 T03410162  RH  035%=      5-min Rain = 0
KLE1 142124Z 15003KT 34/16 A3006 RMK A01 T03390163  RH  035%=      5-min Rain = 0
KLE1 142125Z 17003KT 34/16 A3006 RMK A01 T03390162  RH  035%=      5-min Rain = 0
KLE1 142126Z 14003KT 34/16 A3006 RMK A01 T03380160  RH  034%=      5-min Rain = 0
KLE1 142127Z 10004KT 34/15 A3006 RMK A01 T03380153  RH  033%=      5-min Rain = 0
KLE1 142128Z 12005KT 34/15 A3006 RMK A01 T03360152  RH  033%=      5-min Rain = 0
KLE1 142129Z 10005KT 34/16 A3006 RMK A01 T03350158  RH  035%=      5-min Rain = 0
KLE1 142130Z 09003KT 34/16 A3006 RMK A01 T03360157  RH  034%=      5-min Rain = 0
KLE1 142131Z 04001KT 34/16 A3005 RMK A01 T03370156  RH  034%=      5-min Rain = 0
KLE1 142132Z 11002KT 34/16 A3005 RMK A01 T03370159  RH  035%=      5-min Rain = 0
KLE1 142133Z 13003KT 34/16 A3006 RMK A01 T03360161  RH  035%=      5-min Rain = 0
KLE1 142134Z 11003KT 34/16 A3005 RMK A01 T03390164  RH  035%=      5-min Rain = 0
KLE1 142135Z 11003KT 34/16 A3005 RMK A01 T03420162  RH  034%=      5-min Rain = 0
KLE1 142136Z 05003KT 34/16 A3005 RMK A01 T03440162  RH  034%=      5-min Rain = 0
KLE1 142137Z 02006KT 35/16 A3005 RMK A01 T03450164  RH  034%=      5-min Rain = 0
KLE1 142138Z 08012KT 35/16 A3005 RMK A01 T03460163  RH  034%=      5-min Rain = 0
KLE1 142139Z 13007KT 35/16 A3005 RMK A01 T03470164  RH  034%=      5-min Rain = 0
KLE1 142140Z 13004KT 35/16 A3005 RMK A01 T03450164  RH  034%=      5-min Rain = 0
KLE1 142141Z 06004KT 34/16 A3005 RMK A01 T03430160  RH  034%=      5-min Rain = 0
KLE1 142142Z 06006KT 35/16 A3005 RMK A01 T03450159  RH  033%=      5-min Rain = 0
KLE1 142143Z 07006KT 35/16 A3005 RMK A01 T03490160  RH  033%=      5-min Rain = 0
KLE1 142144Z 06008KT 35/16 A3005 RMK A01 T03530162  RH  032%=      5-min Rain = 0
KLE1 142145Z 05006KT 35/16 A3005 RMK A01 T03540159  RH  031%=      5-min Rain = 0
KLE1 142146Z 06005KT 35/16 A3005 RMK A01 T03510158  RH  032%=      5-min Rain = 0
KLE1 142147Z 05005KT 35/16 A3005 RMK A01 T03500156  RH  032%=      5-min Rain = 0
KLE1 142148Z 04006KT 35/16 A3005 RMK A01 T03490157  RH  032%=      5-min Rain = 0
KLE1 142149Z 07006KT 35/16 A3005 RMK A01 T03460157  RH  033%=      5-min Rain = 0
KLE1 142150Z 06007KT 35/16 A3005 RMK A01 T03450158  RH  033%=      5-min Rain = 0
KLE1 142151Z 06007KT 34/16 A3005 RMK A01 T03440156  RH  033%=      5-min Rain = 0
KLE1 142152Z 07006KT 34/16 A3005 RMK A01 T03440159  RH  033%=      5-min Rain = 0
KLE1 142153Z 07005KT 34/16 A3005 RMK A01 T03440158  RH  033%=      5-min Rain = 0
KLE1 142154Z 07006KT 34/16 A3005 RMK A01 T03430161  RH  034%=      5-min Rain = 0
KLE1 142155Z 11005KT 34/16 A3005 RMK A01 T03430163  RH  034%=      5-min Rain = 0
KLE1 142156Z 12009KT 34/16 A3004 RMK A01 T03440163  RH  034%=      5-min Rain = 0
KLE1 142157Z 12009KT 35/16 A3004 RMK A01 T03450160  RH  033%=      5-min Rain = 0
KLE1 142158Z 11010KT 34/16 A3004 RMK A01 T03440162  RH  034%=      5-min Rain = 0
KLE1 142159Z 11008KT 34/16 A3004 RMK A01 T03440162  RH  034%=      5-min Rain = 0
KLE1 142200Z 10006KT 34/17 A3004 RMK A01 T03440165  RH  034%=      5-min Rain = 0
KLE1 142201Z 09006KT 35/17 A3004 RMK A01 T03490167  RH  034%=      5-min Rain = 0
KLE1 142202Z 10004KT 35/17 A3004 RMK A01 T03510165  RH  033%=      5-min Rain = 0
KLE1 142203Z 10007KT 35/17 A3004 RMK A01 T03510166  RH  033%=      5-min Rain = 0
KLE1 142204Z 08009KT 35/17 A3004 RMK A01 T03520165  RH  033%=      5-min Rain = 0
KLE1 142205Z 09008KT 35/16 A3004 RMK A01 T03520158  RH  032%=      5-min Rain = 0
KLE1 142206Z 10006KT 35/16 A3004 RMK A01 T03500155  RH  031%=      5-min Rain = 0
KLE1 142207Z 10007KT 35/16 A3004 RMK A01 T03480158  RH  032%=      5-min Rain = 0
KLE1 142208Z 09011KT 35/16 A3004 RMK A01 T03470162  RH  033%=      5-min Rain = 0
KLE1 142209Z 09009KT 35/16 A3004 RMK A01 T03450161  RH  033%=      5-min Rain = 0
KLE1 142210Z 09010KT 34/16 A3004 RMK A01 T03440160  RH  033%=      5-min Rain = 0
KLE1 142211Z 10007KT 34/16 A3004 RMK A01 T03440162  RH  034%=      5-min Rain = 0
KLE1 142212Z 09008KT 35/16 A3004 RMK A01 T03450162  RH  034%=      5-min Rain = 0
KLE1 142213Z 09006KT 35/16 A3004 RMK A01 T03450161  RH  033%=      5-min Rain = 0
KLE1 142214Z 07003KT 34/16 A3004 RMK A01 T03430160  RH  034%=      5-min Rain = 0
KLE1 142215Z 09002KT 34/16 A3004 RMK A01 T03410160  RH  034%=      5-min Rain = 0
KLE1 142216Z 09003KT 34/16 A3004 RMK A01 T03410161  RH  034%=      5-min Rain = 0
KLE1 142217Z 09007KT 34/16 A3004 RMK A01 T03430164  RH  034%=      5-min Rain = 0
KLE1 142218Z 10005KT 35/16 A3004 RMK A01 T03450163  RH  034%=      5-min Rain = 0
KLE1 142219Z 08007KT 35/16 A3004 RMK A01 T03470164  RH  034%=      5-min Rain = 0
KLE1 142220Z 12006KT 35/16 A3004 RMK A01 T03470163  RH  033%=      5-min Rain = 0
KLE1 142221Z 11006KT 35/16 A3004 RMK A01 T03460162  RH  034%=      5-min Rain = 0
KLE1 142222Z 06008KT 35/16 A3004 RMK A01 T03460162  RH  033%=      5-min Rain = 0
KLE1 142223Z 05007KT 35/16 A3004 RMK A01 T03470159  RH  033%=      5-min Rain = 0
KLE1 142224Z 07007KT 35/16 A3004 RMK A01 T03460160  RH  033%=      5-min Rain = 0
KLE1 142225Z 09005KT 35/16 A3004 RMK A01 T03450159  RH  033%=      5-min Rain = 0
KLE1 142226Z 09003KT 34/16 A3004 RMK A01 T03430160  RH  034%=      5-min Rain = 0
KLE1 142227Z 09006KT 34/16 A3004 RMK A01 T03430163  RH  034%=      5-min Rain = 0
KLE1 142228Z 10009KT 35/16 A3004 RMK A01 T03470164  RH  034%=      5-min Rain = 0
KLE1 142229Z 10007KT 35/16 A3004 RMK A01 T03470161  RH  033%=      5-min Rain = 0
KLE1 142230Z 08009KT 35/16 A3004 RMK A01 T03460162  RH  033%=      5-min Rain = 0
KLE1 142231Z 08005KT 35/16 A3004 RMK A01 T03460161  RH  033%=      5-min Rain = 0
KLE1 142232Z 09004KT 35/16 A3003 RMK A01 T03460162  RH  033%=      5-min Rain = 0
KLE1 142233Z 10006KT 35/16 A3003 RMK A01 T03450163  RH  034%=      5-min Rain = 0
KLE1 142234Z 10007KT 35/17 A3003 RMK A01 T03450165  RH  034%=      5-min Rain = 0
KLE1 142235Z 08009KT 35/16 A3003 RMK A01 T03480164  RH  034%=      5-min Rain = 0
KLE1 142236Z 08009KT 35/16 A3003 RMK A01 T03470160  RH  033%=      5-min Rain = 0
KLE1 142237Z 09010KT 35/17 A3003 RMK A01 T03460166  RH  034%=      5-min Rain = 0
KLE1 142238Z 09010KT 35/17 A3003 RMK A01 T03470165  RH  034%=      5-min Rain = 0
KLE1 142239Z 11008KT 35/17 A3003 RMK A01 T03450165  RH  034%=      5-min Rain = 0
KLE1 142240Z 10007KT 34/17 A3003 RMK A01 T03440165  RH  034%=      5-min Rain = 0
KLE1 142241Z 12005KT 34/16 A3003 RMK A01 T03420164  RH  035%=      5-min Rain = 0
KLE1 142242Z 11004KT 34/16 A3003 RMK A01 T03420164  RH  035%=      5-min Rain = 0
KLE1 142243Z 11002KT 34/16 A3003 RMK A01 T03430163  RH  034%=      5-min Rain = 0
KLE1 142244Z 11008KT 34/17 A3003 RMK A01 T03440166  RH  035%=      5-min Rain = 0
KLE1 142245Z 11009KT 35/17 A3003 RMK A01 T03470165  RH  034%=      5-min Rain = 0
KLE1 142246Z 11008KT 35/16 A3003 RMK A01 T03450164  RH  034%=      5-min Rain = 0
KLE1 142247Z 10007KT 34/17 A3003 RMK A01 T03440165  RH  035%=      5-min Rain = 0
KLE1 142248Z 11005KT 34/17 A3003 RMK A01 T03440165  RH  035%=      5-min Rain = 0
KLE1 142249Z 12006KT 34/17 A3003 RMK A01 T03440167  RH  035%=      5-min Rain = 0
KLE1 142250Z 11006KT 35/17 A3003 RMK A01 T03470168  RH  035%=      5-min Rain = 0
KLE1 142251Z 11007KT 35/17 A3003 RMK A01 T03460166  RH  034%=      5-min Rain = 0
KLE1 142252Z 10008KT 35/17 A3003 RMK A01 T03460169  RH  035%=      5-min Rain = 0
KLE1 142253Z 10006KT 35/17 A3003 RMK A01 T03480167  RH  034%=      5-min Rain = 0
KLE1 142254Z 10009KT 35/17 A3003 RMK A01 T03480166  RH  034%=      5-min Rain = 0
KLE1 142255Z 08010KT 35/17 A3003 RMK A01 T03490165  RH  034%=      5-min Rain = 0
KLE1 142256Z 09009KT 35/16 A3003 RMK A01 T03490164  RH  033%=      5-min Rain = 0
KLE1 142257Z 10007KT 35/16 A3003 RMK A01 T03480163  RH  033%=      5-min Rain = 0
KLE1 142258Z 08008KT 35/16 A3003 RMK A01 T03490163  RH  033%=      5-min Rain = 0
KLE1 142259Z 08009KT 35/16 A3003 RMK A01 T03500161  RH  033%=      5-min Rain = 0
KLE1 142300Z 07010KT 35/16 A3003 RMK A01 T03490163  RH  033%=      5-min Rain = 0
KLE1 142301Z 08009KT 35/16 A3003 RMK A01 T03490162  RH  033%=      5-min Rain = 0
KLE1 142302Z 10007KT 35/16 A3003 RMK A01 T03480161  RH  033%=      5-min Rain = 0
KLE1 142303Z 11009KT 35/16 A3003 RMK A01 T03470162  RH  033%=      5-min Rain = 0
KLE1 142304Z 10005KT 35/16 A3003 RMK A01 T03460160  RH  033%=      5-min Rain = 0
KLE1 142305Z 11007KT 35/16 A3003 RMK A01 T03450163  RH  034%=      5-min Rain = 0
KLE1 142306Z 11007KT 35/16 A3003 RMK A01 T03460161  RH  033%=      5-min Rain = 0
KLE1 142307Z 11006KT 34/16 A3003 RMK A01 T03440160  RH  033%=      5-min Rain = 0
KLE1 142308Z 12008KT 34/16 A3003 RMK A01 T03430162  RH  034%=      5-min Rain = 0
KLE1 142309Z 12007KT 34/16 A3003 RMK A01 T03440162  RH  034%=      5-min Rain = 0
KLE1 142310Z 11008KT 34/16 A3003 RMK A01 T03440163  RH  034%=      5-min Rain = 0
KLE1 142311Z 11008KT 35/16 A3003 RMK A01 T03460164  RH  034%=      5-min Rain = 0
KLE1 142312Z 11009KT 35/17 A3003 RMK A01 T03480165  RH  034%=      5-min Rain = 0
KLE1 142313Z 11010KT 35/16 A3003 RMK A01 T03490164  RH  033%=      5-min Rain = 0
KLE1 142314Z 11010KT 35/16 A3003 RMK A01 T03470164  RH  034%=      5-min Rain = 0
KLE1 142315Z 11009KT 35/16 A3003 RMK A01 T03450164  RH  034%=      5-min Rain = 0
KLE1 142316Z 11007KT 34/16 A3003 RMK A01 T03440163  RH  034%=      5-min Rain = 0
KLE1 142317Z 10008KT 34/16 A3003 RMK A01 T03430163  RH  034%=      5-min Rain = 0
KLE1 142318Z 08008KT 34/16 A3003 RMK A01 T03430162  RH  034%=      5-min Rain = 0
KLE1 142319Z 08008KT 34/16 A3003 RMK A01 T03420159  RH  034%=      5-min Rain = 0
KLE1 142320Z 07006KT 34/16 A3003 RMK A01 T03420159  RH  034%=      5-min Rain = 0
KLE1 142321Z 10008KT 34/16 A3003 RMK A01 T03430158  RH  033%=      5-min Rain = 0
KLE1 142322Z 10011KT 34/16 A3003 RMK A01 T03440155  RH  032%=      5-min Rain = 0
KLE1 142323Z 11008KT 34/15 A3003 RMK A01 T03440153  RH  032%=      5-min Rain = 0
KLE1 142324Z 12008KT 34/15 A3003 RMK A01 T03430154  RH  032%=      5-min Rain = 0
KLE1 142325Z 12006KT 34/15 A3003 RMK A01 T03430152  RH  032%=      5-min Rain = 0
KLE1 142326Z 10007KT 34/16 A3003 RMK A01 T03440155  RH  032%=      5-min Rain = 0
KLE1 142327Z 11009KT 35/16 A3003 RMK A01 T03450159  RH  033%=      5-min Rain = 0
KLE1 142328Z 10010KT 35/16 A3003 RMK A01 T03450162  RH  034%=      5-min Rain = 0
KLE1 142329Z 10009KT 35/16 A3003 RMK A01 T03450159  RH  033%=      5-min Rain = 0
KLE1 142330Z 10010KT 34/16 A3003 RMK A01 T03440162  RH  034%=      5-min Rain = 0
KLE1 142331Z 11007KT 34/16 A3003 RMK A01 T03440163  RH  034%=      5-min Rain = 0
KLE1 142332Z 11009KT 34/16 A3003 RMK A01 T03440163  RH  034%=      5-min Rain = 0
KLE1 142333Z 11009KT 35/16 A3003 RMK A01 T03450159  RH  033%=      5-min Rain = 0
KLE1 142334Z 10007KT 35/16 A3003 RMK A01 T03450155  RH  032%=      5-min Rain = 0
KLE1 142335Z 10009KT 35/16 A3003 RMK A01 T03460156  RH  032%=      5-min Rain = 0
KLE1 142336Z 09007KT 35/16 A3003 RMK A01 T03460162  RH  033%=      5-min Rain = 0
KLE1 142337Z 08007KT 34/16 A3003 RMK A01 T03440164  RH  034%=      5-min Rain = 0
KLE1 142338Z 09006KT 34/16 A3003 RMK A01 T03430164  RH  034%=      5-min Rain = 0
KLE1 142339Z 09008KT 34/16 A3003 RMK A01 T03420164  RH  035%=      5-min Rain = 0
KLE1 142340Z 08009KT 34/16 A3003 RMK A01 T03420162  RH  034%=      5-min Rain = 0
KLE1 142341Z 09008KT 34/16 A3003 RMK A01 T03430159  RH  033%=      5-min Rain = 0
KLE1 142342Z 11008KT 34/16 A3003 RMK A01 T03430158  RH  033%=      5-min Rain = 0
KLE1 142343Z 11007KT 34/16 A3003 RMK A01 T03440161  RH  034%=      5-min Rain = 0
KLE1 142344Z 11008KT 34/17 A3003 RMK A01 T03440165  RH  034%=      5-min Rain = 0
KLE1 142345Z 12009KT 34/16 A3003 RMK A01 T03430164  RH  035%=      5-min Rain = 0
KLE1 142346Z 12010KT 34/17 A3003 RMK A01 T03430168  RH  035%=      5-min Rain = 0
KLE1 142347Z 11009KT 34/16 A3003 RMK A01 T03430162  RH  034%=      5-min Rain = 0
KLE1 142348Z 10008KT 34/16 A3003 RMK A01 T03430158  RH  033%=      5-min Rain = 0
KLE1 142349Z 10008KT 34/16 A3003 RMK A01 T03430156  RH  033%=      5-min Rain = 0
KLE1 142350Z 12009KT 34/16 A3003 RMK A01 T03420159  RH  033%=      5-min Rain = 0
KLE1 142351Z 12008KT 34/16 A3003 RMK A01 T03420161  RH  034%=      5-min Rain = 0
KLE1 142352Z 12007KT 34/16 A3003 RMK A01 T03420161  RH  034%=      5-min Rain = 0
KLE1 142353Z 11007KT 34/16 A3003 RMK A01 T03410157  RH  033%=      5-min Rain = 0
KLE1 142354Z 12009KT 34/16 A3003 RMK A01 T03420163  RH  035%=      5-min Rain = 0
KLE1 142355Z 12008KT 34/17 A3003 RMK A01 T03410166  RH  035%=      5-min Rain = 0
KLE1 142356Z 11009KT 34/16 A3003 RMK A01 T03410159  RH  034%=      5-min Rain = 0
KLE1 142357Z 10007KT 34/16 A3003 RMK A01 T03410158  RH  033%=      5-min Rain = 0
KLE1 142358Z 11008KT 34/16 A3003 RMK A01 T03410159  RH  034%=      5-min Rain = 0
KLE1 142359Z 11007KT 34/16 A3003 RMK A01 T03400160  RH  034%=      5-min Rain = 0
KLE1 150000Z 13009KT 34/17 A3003 RMK A01 T03410166  RH  035%=      5-min Rain = 0
KLE1 150001Z 12009KT 34/17 A3003 RMK A01 T03400170  RH  036%=      5-min Rain = 0
KLE1 150002Z 11010KT 34/17 A3003 RMK A01 T03390168  RH  036%=      5-min Rain = 0
KLE1 150003Z 12008KT 34/16 A3003 RMK A01 T03390163  RH  035%=      5-min Rain = 0
KLE1 150004Z 12008KT 34/17 A3003 RMK A01 T03390165  RH  035%=      5-min Rain = 0
KLE1 150005Z 12008KT 34/17 A3003 RMK A01 T03380166  RH  036%=      5-min Rain = 0
KLE1 150006Z 13007KT 34/17 A3003 RMK A01 T03380165  RH  036%=      5-min Rain = 0
KLE1 150007Z 13006KT 34/16 A3003 RMK A01 T03380164  RH  035%=      5-min Rain = 0
KLE1 150008Z 12006KT 34/16 A3003 RMK A01 T03380164  RH  035%=      5-min Rain = 0
KLE1 150009Z 12006KT 34/17 A3003 RMK A01 T03380165  RH  035%=      5-min Rain = 0
KLE1 150010Z 11008KT 34/16 A3003 RMK A01 T03380162  RH  035%=      5-min Rain = 0
KLE1 150011Z 10007KT 34/16 A3003 RMK A01 T03380159  RH  034%=      5-min Rain = 0
KLE1 150012Z 09008KT 34/16 A3003 RMK A01 T03390158  RH  034%=      5-min Rain = 0
KLE1 150013Z 09010KT 34/16 A3003 RMK A01 T03390157  RH  034%=      5-min Rain = 0
KLE1 150014Z 09009KT 34/16 A3003 RMK A01 T03390157  RH  034%=      5-min Rain = 0
KLE1 150015Z 10011KT 34/15 A3002 RMK A01 T03390154  RH  033%=      5-min Rain = 0
KLE1 150016Z 08010KT 34/15 A3002 RMK A01 T03390152  RH  033%=      5-min Rain = 0
KLE1 150017Z 09011KT 34/15 A3003 RMK A01 T03390151  RH  033%=      5-min Rain = 0
KLE1 150018Z 09009KT 34/15 A3003 RMK A01 T03390152  RH  033%=      5-min Rain = 0
KLE1 150019Z 09008KT 34/16 A3003 RMK A01 T03390155  RH  033%=      5-min Rain = 0
KLE1 150020Z 08009KT 34/15 A3003 RMK A01 T03390154  RH  033%=      5-min Rain = 0
KLE1 150021Z 08009KT 34/15 A3003 RMK A01 T03390153  RH  033%=      5-min Rain = 0
KLE1 150022Z 08008KT 34/15 A3003 RMK A01 T03390154  RH  033%=      5-min Rain = 0
KLE1 150023Z 09009KT 34/16 A3003 RMK A01 T03390155  RH  033%=      5-min Rain = 0
KLE1 150024Z 09010KT 34/15 A3003 RMK A01 T03380153  RH  033%=      5-min Rain = 0
KLE1 150025Z 09009KT 34/15 A3003 RMK A01 T03370152  RH  033%=      5-min Rain = 0
KLE1 150026Z 09009KT 34/15 A3003 RMK A01 T03370151  RH  033%=      5-min Rain = 0
KLE1 150027Z 10008KT 34/15 A3003 RMK A01 T03370151  RH  033%=      5-min Rain = 0
KLE1 150028Z 08007KT 34/15 A3003 RMK A01 T03360152  RH  033%=      5-min Rain = 0
KLE1 150029Z 08007KT 34/15 A3003 RMK A01 T03360151  RH  033%=      5-min Rain = 0
KLE1 150030Z 09008KT 34/15 A3003 RMK A01 T03360152  RH  033%=      5-min Rain = 0
KLE1 150031Z 08010KT 34/15 A3003 RMK A01 T03350149  RH  033%=      5-min Rain = 0
KLE1 150032Z 08010KT 34/15 A3003 RMK A01 T03350145  RH  032%=      5-min Rain = 0
KLE1 150033Z 09011KT 34/14 A3003 RMK A01 T03350144  RH  032%=      5-min Rain = 0
KLE1 150034Z 09010KT 33/14 A3003 RMK A01 T03340143  RH  032%=      5-min Rain = 0
KLE1 150035Z 10010KT 33/14 A3003 RMK A01 T03330143  RH  032%=      5-min Rain = 0
KLE1 150036Z 09009KT 33/14 A3003 RMK A01 T03330144  RH  032%=      5-min Rain = 0
KLE1 150037Z 09010KT 33/15 A3003 RMK A01 T03340145  RH  032%=      5-min Rain = 0
KLE1 150038Z 09009KT 33/15 A3003 RMK A01 T03340145  RH  032%=      5-min Rain = 0
KLE1 150039Z 09009KT 33/15 A3003 RMK A01 T03340145  RH  032%=      5-min Rain = 0
KLE1 150040Z 09010KT 33/15 A3003 RMK A01 T03330147  RH  033%=      5-min Rain = 0
KLE1 150041Z 09010KT 33/15 A3003 RMK A01 T03330147  RH  033%=      5-min Rain = 0
KLE1 150042Z 09011KT 33/15 A3003 RMK A01 T03320147  RH  033%=      5-min Rain = 0
KLE1 150043Z 09010KT 33/15 A3003 RMK A01 T03320149  RH  033%=      5-min Rain = 0
KLE1 150044Z 09010KT 33/15 A3003 RMK A01 T03310149  RH  033%=      5-min Rain = 0
KLE1 150045Z 09010KT 33/15 A3003 RMK A01 T03300150  RH  034%=      5-min Rain = 0
KLE1 150046Z 09010KT 33/15 A3003 RMK A01 T03300149  RH  034%=      5-min Rain = 0
KLE1 150047Z 09010KT 33/15 A3003 RMK A01 T03290149  RH  034%=      5-min Rain = 0
KLE1 150048Z 09009KT 33/15 A3003 RMK A01 T03290148  RH  034%=      5-min Rain = 0
KLE1 150049Z 09009KT 33/15 A3003 RMK A01 T03280149  RH  034%=      5-min Rain = 0
KLE1 150050Z 09009KT 33/15 A3003 RMK A01 T03280150  RH  034%=      5-min Rain = 0
KLE1 150051Z 09009KT 33/15 A3003 RMK A01 T03280150  RH  034%=      5-min Rain = 0
KLE1 150052Z 09008KT 33/15 A3003 RMK A01 T03280151  RH  034%=      5-min Rain = 0
KLE1 150053Z 09009KT 33/15 A3003 RMK A01 T03290153  RH  035%=      5-min Rain = 0
KLE1 150054Z 09009KT 33/15 A3003 RMK A01 T03280152  RH  035%=      5-min Rain = 0
KLE1 150055Z 09008KT 33/15 A3003 RMK A01 T03280154  RH  035%=      5-min Rain = 0
KLE1 150056Z 09010KT 33/15 A3003 RMK A01 T03270154  RH  035%=      5-min Rain = 0
KLE1 150057Z 09009KT 33/15 A3003 RMK A01 T03270154  RH  035%=      5-min Rain = 0
KLE1 150058Z 09008KT 33/16 A3004 RMK A01 T03270155  RH  036%=      5-min Rain = 0
KLE1 150059Z 09008KT 33/16 A3004 RMK A01 T03270156  RH  036%=      5-min Rain = 0
KLE1 150100Z 09008KT 33/16 A3004 RMK A01 T03260157  RH  036%=      5-min Rain = 0
KLE1 150101Z 09008KT 33/16 A3004 RMK A01 T03250157  RH  036%=      5-min Rain = 0
KLE1 150102Z 09010KT 33/16 A3004 RMK A01 T03250157  RH  036%=      5-min Rain = 0
KLE1 150103Z 09009KT 33/16 A3004 RMK A01 T03250158  RH  037%=      5-min Rain = 0
KLE1 150104Z 08011KT 32/16 A3004 RMK A01 T03240158  RH  037%=      5-min Rain = 0
KLE1 150105Z 09010KT 32/16 A3004 RMK A01 T03240158  RH  037%=      5-min Rain = 0
KLE1 150106Z 09009KT 32/16 A3004 RMK A01 T03230160  RH  037%=      5-min Rain = 0
KLE1 150107Z 09009KT 32/16 A3004 RMK A01 T03220160  RH  038%=      5-min Rain = 0
KLE1 150108Z 09009KT 32/16 A3004 RMK A01 T03210160  RH  038%=      5-min Rain = 0
KLE1 150109Z 09009KT 32/16 A3004 RMK A01 T03210160  RH  038%=      5-min Rain = 0
KLE1 150110Z 09009KT 32/16 A3004 RMK A01 T03200161  RH  038%=      5-min Rain = 0
KLE1 150111Z 09010KT 32/16 A3004 RMK A01 T03190161  RH  039%=      5-min Rain = 0
KLE1 150112Z 09009KT 32/16 A3004 RMK A01 T03190161  RH  039%=      5-min Rain = 0
KLE1 150113Z 09009KT 32/16 A3004 RMK A01 T03180162  RH  039%=      5-min Rain = 0
KLE1 150114Z 09009KT 32/16 A3004 RMK A01 T03180162  RH  039%=      5-min Rain = 0
KLE1 150115Z 09009KT 32/16 A3004 RMK A01 T03170162  RH  039%=      5-min Rain = 0
KLE1 150116Z 09010KT 32/16 A3004 RMK A01 T03160161  RH  039%=      5-min Rain = 0
KLE1 150117Z 09009KT 32/16 A3004 RMK A01 T03160162  RH  039%=      5-min Rain = 0
KLE1 150118Z 09009KT 32/16 A3004 RMK A01 T03160162  RH  039%=      5-min Rain = 0
KLE1 150119Z 09009KT 32/16 A3004 RMK A01 T03150162  RH  040%=      5-min Rain = 0
KLE1 150120Z 09009KT 32/16 A3004 RMK A01 T03150162  RH  040%=      5-min Rain = 0
KLE1 150121Z 09009KT 31/16 A3004 RMK A01 T03140162  RH  040%=      5-min Rain = 0
KLE1 150122Z 09008KT 31/16 A3004 RMK A01 T03140161  RH  040%=      5-min Rain = 0
KLE1 150123Z 09009KT 31/16 A3004 RMK A01 T03130161  RH  040%=      5-min Rain = 0
KLE1 150124Z 10008KT 31/16 A3004 RMK A01 T03120161  RH  040%=      5-min Rain = 0
KLE1 150125Z 10009KT 31/16 A3005 RMK A01 T03120161  RH  040%=      5-min Rain = 0
KLE1 150126Z 09008KT 31/16 A3005 RMK A01 T03110161  RH  040%=      5-min Rain = 0
KLE1 150127Z 10008KT 31/16 A3005 RMK A01 T03110161  RH  040%=      5-min Rain = 0
KLE1 150128Z 10008KT 31/16 A3005 RMK A01 T03110160  RH  040%=      5-min Rain = 0
KLE1 150129Z 10008KT 31/16 A3005 RMK A01 T03110160  RH  040%=      5-min Rain = 0
KLE1 150130Z 10008KT 31/16 A3005 RMK A01 T03100160  RH  040%=      5-min Rain = 0
KLE1 150131Z 09008KT 31/16 A3005 RMK A01 T03090160  RH  041%=      5-min Rain = 0
KLE1 150132Z 09008KT 31/16 A3005 RMK A01 T03090160  RH  041%=      5-min Rain = 0
KLE1 150133Z 09008KT 31/16 A3005 RMK A01 T03080160  RH  041%=      5-min Rain = 0
KLE1 150134Z 09008KT 31/16 A3005 RMK A01 T03080160  RH  041%=      5-min Rain = 0
KLE1 150135Z 09008KT 31/16 A3005 RMK A01 T03070160  RH  041%=      5-min Rain = 0
KLE1 150136Z 09008KT 31/16 A3005 RMK A01 T03060160  RH  041%=      5-min Rain = 0
KLE1 150137Z 09008KT 31/16 A3005 RMK A01 T03060160  RH  041%=      5-min Rain = 0
KLE1 150138Z 09008KT 31/16 A3005 RMK A01 T03050160  RH  041%=      5-min Rain = 0
KLE1 150139Z 09009KT 30/16 A3005 RMK A01 T03040159  RH  042%=      5-min Rain = 0
KLE1 150140Z 09008KT 30/16 A3005 RMK A01 T03040159  RH  042%=      5-min Rain = 0
KLE1 150141Z 09008KT 30/16 A3005 RMK A01 T03030159  RH  042%=      5-min Rain = 0
KLE1 150142Z 09009KT 30/16 A3005 RMK A01 T03040159  RH  042%=      5-min Rain = 0
KLE1 150143Z 09009KT 30/16 A3005 RMK A01 T03030159  RH  042%=      5-min Rain = 0
KLE1 150144Z 09009KT 30/16 A3005 RMK A01 T03030159  RH  042%=      5-min Rain = 0
KLE1 150145Z 09009KT 30/16 A3005 RMK A01 T03030160  RH  042%=      5-min Rain = 0
KLE1 150146Z 09009KT 30/16 A3005 RMK A01 T03030160  RH  042%=      5-min Rain = 0
KLE1 150147Z 09008KT 30/16 A3006 RMK A01 T03020160  RH  042%=      5-min Rain = 0
KLE1 150148Z 09008KT 30/16 A3006 RMK A01 T03010160  RH  043%=      5-min Rain = 0
KLE1 150149Z 09008KT 30/16 A3006 RMK A01 T03010160  RH  043%=      5-min Rain = 0
KLE1 150150Z 09009KT 30/16 A3006 RMK A01 T03000161  RH  043%=      5-min Rain = 0
KLE1 150151Z 10008KT 30/16 A3006 RMK A01 T03010162  RH  043%=      5-min Rain = 0
KLE1 150152Z 10009KT 30/16 A3006 RMK A01 T03000162  RH  043%=      5-min Rain = 0
KLE1 150153Z 10008KT 30/16 A3006 RMK A01 T03000161  RH  043%=      5-min Rain = 0
KLE1 150154Z 10008KT 30/16 A3006 RMK A01 T03000162  RH  043%=      5-min Rain = 0
KLE1 150155Z 10008KT 30/16 A3006 RMK A01 T02990162  RH  044%=      5-min Rain = 0
KLE1 150156Z 10008KT 30/16 A3006 RMK A01 T02980162  RH  044%=      5-min Rain = 0
KLE1 150157Z 10007KT 30/16 A3006 RMK A01 T02980162  RH  044%=      5-min Rain = 0
KLE1 150158Z 10008KT 30/16 A3006 RMK A01 T02970162  RH  044%=      5-min Rain = 0
KLE1 150159Z 10007KT 30/16 A3006 RMK A01 T02960163  RH  045%=      5-min Rain = 0
KLE1 150200Z 10007KT 30/16 A3006 RMK A01 T02950163  RH  045%=      5-min Rain = 0
KLE1 150201Z 10007KT 30/16 A3006 RMK A01 T02950163  RH  045%=      5-min Rain = 0
KLE1 150202Z 10007KT 29/16 A3006 RMK A01 T02940164  RH  045%=      5-min Rain = 0
KLE1 150203Z 10007KT 29/16 A3006 RMK A01 T02940164  RH  045%=      5-min Rain = 0
KLE1 150204Z 10007KT 29/16 A3006 RMK A01 T02930164  RH  046%=      5-min Rain = 0
KLE1 150205Z 11007KT 29/17 A3006 RMK A01 T02930165  RH  046%=      5-min Rain = 0
KLE1 150206Z 11006KT 29/17 A3007 RMK A01 T02930166  RH  046%=      5-min Rain = 0
KLE1 150207Z 11006KT 29/17 A3007 RMK A01 T02920166  RH  047%=      5-min Rain = 0
KLE1 150208Z 11007KT 29/17 A3007 RMK A01 T02920167  RH  047%=      5-min Rain = 0
KLE1 150209Z 11007KT 29/17 A3007 RMK A01 T02900167  RH  047%=      5-min Rain = 0
KLE1 150210Z 11007KT 29/17 A3007 RMK A01 T02900168  RH  048%=      5-min Rain = 0
KLE1 150211Z 11007KT 29/17 A3007 RMK A01 T02890169  RH  048%=      5-min Rain = 0
KLE1 150212Z 11007KT 29/17 A3007 RMK A01 T02880169  RH  048%=      5-min Rain = 0
KLE1 150213Z 11007KT 29/17 A3007 RMK A01 T02880170  RH  049%=      5-min Rain = 0
KLE1 150214Z 11007KT 29/17 A3007 RMK A01 T02880171  RH  049%=      5-min Rain = 0
KLE1 150215Z 11007KT 29/17 A3007 RMK A01 T02880171  RH  049%=      5-min Rain = 0
KLE1 150216Z 11007KT 29/17 A3007 RMK A01 T02880172  RH  050%=      5-min Rain = 0
KLE1 150217Z 11007KT 29/17 A3007 RMK A01 T02880173  RH  050%=      5-min Rain = 0
KLE1 150218Z 11007KT 29/17 A3007 RMK A01 T02870173  RH  050%=      5-min Rain = 0
KLE1 150219Z 11007KT 29/17 A3007 RMK A01 T02870174  RH  050%=      5-min Rain = 0
KLE1 150220Z 11007KT 29/17 A3007 RMK A01 T02860174  RH  051%=      5-min Rain = 0
KLE1 150221Z 11007KT 29/17 A3007 RMK A01 T02860174  RH  051%=      5-min Rain = 0
KLE1 150222Z 11007KT 29/18 A3007 RMK A01 T02860175  RH  051%=      5-min Rain = 0
KLE1 150223Z 11007KT 29/18 A3007 RMK A01 T02850175  RH  051%=      5-min Rain = 0
KLE1 150224Z 11007KT 29/18 A3007 RMK A01 T02850176  RH  052%=      5-min Rain = 0
KLE1 150225Z 11007KT 29/18 A3007 RMK A01 T02850176  RH  052%=      5-min Rain = 0
KLE1 150226Z 11007KT 28/18 A3007 RMK A01 T02840176  RH  052%=      5-min Rain = 0
KLE1 150227Z 11007KT 28/18 A3007 RMK A01 T02840176  RH  052%=      5-min Rain = 0
KLE1 150228Z 11007KT 28/18 A3007 RMK A01 T02840176  RH  052%=      5-min Rain = 0
KLE1 150229Z 11007KT 28/18 A3007 RMK A01 T02840177  RH  052%=      5-min Rain = 0
KLE1 150230Z 11007KT 28/18 A3007 RMK A01 T02830177  RH  052%=      5-min Rain = 0
KLE1 150231Z 11007KT 28/18 A3007 RMK A01 T02830177  RH  053%=      5-min Rain = 0
KLE1 150232Z 11007KT 28/18 A3007 RMK A01 T02820177  RH  053%=      5-min Rain = 0
KLE1 150233Z 11007KT 28/18 A3007 RMK A01 T02820177  RH  053%=      5-min Rain = 0
KLE1 150234Z 11006KT 28/18 A3007 RMK A01 T02810177  RH  053%=      5-min Rain = 0
KLE1 150235Z 11006KT 28/18 A3007 RMK A01 T02810177  RH  053%=      5-min Rain = 0
KLE1 150236Z 11006KT 28/18 A3007 RMK A01 T02800178  RH  054%=      5-min Rain = 0
KLE1 150237Z 11006KT 28/18 A3007 RMK A01 T02800178  RH  054%=      5-min Rain = 0
KLE1 150238Z 11006KT 28/18 A3007 RMK A01 T02790178  RH  054%=      5-min Rain = 0
KLE1 150239Z 11006KT 28/18 A3007 RMK A01 T02790179  RH  054%=      5-min Rain = 0
KLE1 150240Z 11006KT 28/18 A3008 RMK A01 T02780179  RH  055%=      5-min Rain = 0
KLE1 150241Z 11006KT 28/18 A3008 RMK A01 T02770180  RH  055%=      5-min Rain = 0
KLE1 150242Z 12007KT 28/18 A3008 RMK A01 T02770181  RH  056%=      5-min Rain = 0
KLE1 150243Z 11007KT 28/18 A3008 RMK A01 T02760181  RH  056%=      5-min Rain = 0
KLE1 150244Z 12007KT 28/18 A3008 RMK A01 T02750182  RH  057%=      5-min Rain = 0
KLE1 150245Z 12007KT 28/18 A3008 RMK A01 T02750182  RH  057%=      5-min Rain = 0
KLE1 150246Z 12007KT 27/18 A3007 RMK A01 T02740182  RH  057%=      5-min Rain = 0
KLE1 150247Z 11007KT 27/18 A3007 RMK A01 T02740182  RH  057%=      5-min Rain = 0
KLE1 150248Z 11007KT 27/18 A3007 RMK A01 T02740182  RH  057%=      5-min Rain = 0
KLE1 150249Z 11008KT 27/18 A3007 RMK A01 T02740183  RH  057%=      5-min Rain = 0
KLE1 150250Z 11008KT 27/18 A3008 RMK A01 T02730182  RH  058%=      5-min Rain = 0
KLE1 150251Z 10008KT 27/18 A3008 RMK A01 T02730182  RH  058%=      5-min Rain = 0
KLE1 150252Z 10007KT 27/18 A3008 RMK A01 T02730182  RH  058%=      5-min Rain = 0
KLE1 150253Z 10008KT 27/18 A3008 RMK A01 T02730182  RH  058%=      5-min Rain = 0
KLE1 150254Z 10008KT 27/18 A3008 RMK A01 T02730181  RH  057%=      5-min Rain = 0
KLE1 150255Z 10008KT 27/18 A3008 RMK A01 T02730181  RH  057%=      5-min Rain = 0
KLE1 150256Z 10008KT 27/18 A3008 RMK A01 T02740181  RH  057%=      5-min Rain = 0
KLE1 150257Z 11008KT 27/18 A3008 RMK A01 T02740181  RH  057%=      5-min Rain = 0
KLE1 150258Z 11008KT 28/18 A3008 RMK A01 T02750181  RH  057%=      5-min Rain = 0
KLE1 150259Z 11008KT 28/18 A3008 RMK A01 T02760181  RH  056%=      5-min Rain = 0
KLE1 150300Z 11008KT 28/18 A3008 RMK A01 T02760181  RH  056%=      5-min Rain = 0
KLE1 150301Z 11008KT 28/18 A3008 RMK A01 T02760181  RH  056%=      5-min Rain = 0
KLE1 150302Z 11007KT 28/18 A3008 RMK A01 T02770181  RH  056%=      5-min Rain = 0
KLE1 150303Z 10007KT 28/18 A3008 RMK A01 T02770182  RH  056%=      5-min Rain = 0
KLE1 150304Z 10007KT 28/18 A3008 RMK A01 T02770182  RH  056%=      5-min Rain = 0
KLE1 150305Z 10007KT 28/18 A3008 RMK A01 T02770182  RH  056%=      5-min Rain = 0
KLE1 150306Z 10007KT 28/18 A3008 RMK A01 T02760182  RH  056%=      5-min Rain = 0
KLE1 150307Z 11007KT 28/18 A3008 RMK A01 T02760182  RH  057%=      5-min Rain = 0
KLE1 150308Z 11006KT 28/18 A3008 RMK A01 T02750182  RH  057%=      5-min Rain = 0
KLE1 150309Z 10006KT 28/18 A3008 RMK A01 T02750182  RH  057%=      5-min Rain = 0
KLE1 150310Z 10006KT 28/18 A3008 RMK A01 T02750183  RH  057%=      5-min Rain = 0
KLE1 150311Z 10006KT 27/18 A3008 RMK A01 T02740182  RH  057%=      5-min Rain = 0
KLE1 150312Z 10006KT 27/18 A3009 RMK A01 T02740182  RH  057%=      5-min Rain = 0
KLE1 150313Z 10006KT 27/18 A3009 RMK A01 T02730182  RH  057%=      5-min Rain = 0
KLE1 150314Z 10006KT 27/18 A3009 RMK A01 T02730182  RH  057%=      5-min Rain = 0
KLE1 150315Z 10006KT 27/18 A3009 RMK A01 T02720181  RH  057%=      5-min Rain = 0
KLE1 150316Z 10006KT 27/18 A3009 RMK A01 T02720181  RH  057%=      5-min Rain = 0
KLE1 150317Z 10006KT 27/18 A3009 RMK A01 T02720181  RH  057%=      5-min Rain = 0
KLE1 150318Z 10006KT 27/18 A3009 RMK A01 T02720181  RH  057%=      5-min Rain = 0
KLE1 150319Z 10006KT 27/18 A3009 RMK A01 T02710181  RH  058%=      5-min Rain = 0
KLE1 150320Z 10006KT 27/18 A3009 RMK A01 T02710181  RH  058%=      5-min Rain = 0
KLE1 150321Z 10006KT 27/18 A3009 RMK A01 T02710181  RH  058%=      5-min Rain = 0
KLE1 150322Z 10006KT 27/18 A3009 RMK A01 T02700181  RH  058%=      5-min Rain = 0
KLE1 150323Z 10006KT 27/18 A3009 RMK A01 T02700180  RH  058%=      5-min Rain = 0
KLE1 150324Z 10006KT 27/18 A3009 RMK A01 T02690180  RH  058%=      5-min Rain = 0
KLE1 150325Z 10007KT 27/18 A3009 RMK A01 T02690181  RH  058%=      5-min Rain = 0
KLE1 150326Z 10007KT 27/18 A301 RMK A01 T02680181  RH  059%=      5-min Rain = 0
KLE1 150327Z 10007KT 27/18 A301 RMK A01 T02680180  RH  059%=      5-min Rain = 0
KLE1 150328Z 10007KT 27/18 A301 RMK A01 T02680181  RH  059%=      5-min Rain = 0
KLE1 150329Z 09007KT 27/18 A301 RMK A01 T02680181  RH  059%=      5-min Rain = 0
KLE1 150330Z 10008KT 27/18 A301 RMK A01 T02680181  RH  059%=      5-min Rain = 0
KLE1 150331Z 10008KT 27/18 A301 RMK A01 T02680181  RH  059%=      5-min Rain = 0
KLE1 150332Z 10008KT 27/18 A301 RMK A01 T02680181  RH  059%=      5-min Rain = 0
KLE1 150333Z 09008KT 27/18 A301 RMK A01 T02680181  RH  059%=      5-min Rain = 0
KLE1 150334Z 09008KT 27/18 A301 RMK A01 T02680181  RH  059%=      5-min Rain = 0
KLE1 150335Z 10008KT 27/18 A301 RMK A01 T02680181  RH  059%=      5-min Rain = 0
KLE1 150336Z 10008KT 27/18 A301 RMK A01 T02690181  RH  059%=      5-min Rain = 0
KLE1 150337Z 10008KT 27/18 A301 RMK A01 T02690181  RH  059%=      5-min Rain = 0
KLE1 150338Z 09009KT 27/18 A3009 RMK A01 T02690181  RH  059%=      5-min Rain = 0
KLE1 150339Z 09009KT 27/18 A3009 RMK A01 T02690181  RH  058%=      5-min Rain = 0
KLE1 150340Z 09009KT 27/18 A301 RMK A01 T02700180  RH  058%=      5-min Rain = 0
KLE1 150341Z 09008KT 27/18 A301 RMK A01 T02710180  RH  058%=      5-min Rain = 0
KLE1 150342Z 09009KT 27/18 A301 RMK A01 T02710180  RH  057%=      5-min Rain = 0
KLE1 150343Z 10009KT 27/18 A301 RMK A01 T02710180  RH  057%=      5-min Rain = 0
KLE1 150344Z 10008KT 27/18 A301 RMK A01 T02720180  RH  057%=      5-min Rain = 0
KLE1 150345Z 09009KT 27/18 A301 RMK A01 T02720180  RH  057%=      5-min Rain = 0
KLE1 150346Z 09009KT 27/18 A301 RMK A01 T02710179  RH  057%=      5-min Rain = 0
KLE1 150347Z 09009KT 27/18 A301 RMK A01 T02720179  RH  057%=      5-min Rain = 0
KLE1 150348Z 09009KT 27/18 A301 RMK A01 T02720179  RH  057%=      5-min Rain = 0
KLE1 150349Z 09008KT 27/18 A301 RMK A01 T02710179  RH  057%=      5-min Rain = 0
KLE1 150350Z 09009KT 27/18 A301 RMK A01 T02720179  RH  057%=      5-min Rain = 0
KLE1 150351Z 10009KT 27/18 A301 RMK A01 T02710179  RH  057%=      5-min Rain = 0
KLE1 150352Z 10009KT 27/18 A301 RMK A01 T02720179  RH  057%=      5-min Rain = 0
KLE1 150353Z 10009KT 27/18 A301 RMK A01 T02720179  RH  057%=      5-min Rain = 0
KLE1 150354Z 10008KT 27/18 A301 RMK A01 T02720179  RH  057%=      5-min Rain = 0
KLE1 150355Z 10008KT 27/18 A301 RMK A01 T02710179  RH  057%=      5-min Rain = 0
KLE1 150356Z 10008KT 27/18 A301 RMK A01 T02710179  RH  057%=      5-min Rain = 0
KLE1 150357Z 10008KT 27/18 A301 RMK A01 T02710178  RH  057%=      5-min Rain = 0
KLE1 150358Z 10007KT 27/18 A301 RMK A01 T02710178  RH  057%=      5-min Rain = 0
KLE1 150359Z 10007KT 27/18 A301 RMK A01 T02700179  RH  057%=      5-min Rain = 0
KLE1 150400Z 10008KT 27/18 A301 RMK A01 T02700178  RH  057%=      5-min Rain = 0
KLE1 150401Z 10007KT 27/18 A301 RMK A01 T02700178  RH  057%=      5-min Rain = 0
KLE1 150402Z 11007KT 27/18 A3011 RMK A01 T02700178  RH  057%=      5-min Rain = 0
KLE1 150403Z 11007KT 27/18 A3011 RMK A01 T02700178  RH  057%=      5-min Rain = 0
KLE1 150404Z 11007KT 27/18 A3011 RMK A01 T02700179  RH  057%=      5-min Rain = 0
KLE1 150405Z 11006KT 27/18 A3011 RMK A01 T02690179  RH  058%=      5-min Rain = 0
KLE1 150406Z 10006KT 27/18 A3011 RMK A01 T02690180  RH  058%=      5-min Rain = 0
KLE1 150407Z 10006KT 27/18 A3011 RMK A01 T02670180  RH  059%=      5-min Rain = 0
KLE1 150408Z 10007KT 27/18 A3011 RMK A01 T02670179  RH  059%=      5-min Rain = 0
KLE1 150409Z 10007KT 27/18 A3011 RMK A01 T02660179  RH  059%=      5-min Rain = 0
KLE1 150410Z 10007KT 27/18 A3011 RMK A01 T02660178  RH  059%=      5-min Rain = 0
KLE1 150411Z 10007KT 27/18 A3011 RMK A01 T02660178  RH  058%=      5-min Rain = 0
KLE1 150412Z 11007KT 27/18 A3011 RMK A01 T02670178  RH  058%=      5-min Rain = 0
KLE1 150413Z 11007KT 27/18 A3011 RMK A01 T02670178  RH  058%=      5-min Rain = 0
KLE1 150414Z 11008KT 27/18 A3011 RMK A01 T02680178  RH  058%=      5-min Rain = 0
KLE1 150415Z 11008KT 27/18 A3011 RMK A01 T02680178  RH  058%=      5-min Rain = 0
KLE1 150416Z 11008KT 27/18 A3011 RMK A01 T02680179  RH  058%=      5-min Rain = 0
KLE1 150417Z 11008KT 27/18 A3011 RMK A01 T02680179  RH  058%=      5-min Rain = 0
KLE1 150418Z 11008KT 27/18 A3011 RMK A01 T02680179  RH  058%=      5-min Rain = 0
KLE1 150419Z 11008KT 27/18 A3011 RMK A01 T02680180  RH  058%=      5-min Rain = 0
KLE1 150420Z 11008KT 27/18 A3011 RMK A01 T02670180  RH  059%=      5-min Rain = 0
KLE1 150421Z 11008KT 27/18 A3011 RMK A01 T02660180  RH  059%=      5-min Rain = 0
KLE1 150422Z 11008KT 27/18 A3011 RMK A01 T02650180  RH  060%=      5-min Rain = 0
KLE1 150423Z 11008KT 27/18 A3011 RMK A01 T02650180  RH  060%=      5-min Rain = 0
KLE1 150424Z 11008KT 26/18 A3011 RMK A01 T02640180  RH  060%=      5-min Rain = 0
KLE1 150425Z 11008KT 26/18 A3011 RMK A01 T02640180  RH  060%=      5-min Rain = 0
KLE1 150426Z 11008KT 26/18 A3011 RMK A01 T02640179  RH  060%=      5-min Rain = 0
KLE1 150427Z 11007KT 26/18 A3011 RMK A01 T02640179  RH  059%=      5-min Rain = 0
KLE1 150428Z 11007KT 27/18 A3011 RMK A01 T02650180  RH  059%=      5-min Rain = 0
KLE1 150429Z 11007KT 27/18 A3011 RMK A01 T02650180  RH  059%=      5-min Rain = 0
KLE1 150430Z 11006KT 26/18 A3011 RMK A01 T02640180  RH  060%=      5-min Rain = 0
KLE1 150431Z 11006KT 26/18 A3011 RMK A01 T02640180  RH  060%=      5-min Rain = 0
KLE1 150432Z 11006KT 26/18 A3011 RMK A01 T02630180  RH  060%=      5-min Rain = 0
KLE1 150433Z 11006KT 26/18 A3011 RMK A01 T02620180  RH  060%=      5-min Rain = 0
KLE1 150434Z 12006KT 26/18 A3011 RMK A01 T02610180  RH  061%=      5-min Rain = 0
KLE1 150435Z 12006KT 26/18 A3011 RMK A01 T02610180  RH  061%=      5-min Rain = 0
KLE1 150436Z 12006KT 26/18 A3011 RMK A01 T02610180  RH  061%=      5-min Rain = 0
KLE1 150437Z 11007KT 26/18 A3011 RMK A01 T02600179  RH  061%=      5-min Rain = 0
KLE1 150438Z 11007KT 26/18 A3011 RMK A01 T02600180  RH  061%=      5-min Rain = 0
KLE1 150439Z 11007KT 26/18 A3011 RMK A01 T02600180  RH  061%=      5-min Rain = 0
KLE1 150440Z 11007KT 26/18 A3011 RMK A01 T02600180  RH  061%=      5-min Rain = 0
KLE1 150441Z 11006KT 26/18 A3011 RMK A01 T02600180  RH  061%=      5-min Rain = 0
KLE1 150442Z 11006KT 26/18 A3011 RMK A01 T02600180  RH  061%=      5-min Rain = 0
KLE1 150443Z 11006KT 26/18 A3011 RMK A01 T02600180  RH  061%=      5-min Rain = 0
KLE1 150444Z 11007KT 26/18 A3011 RMK A01 T02600180  RH  061%=      5-min Rain = 0
KLE1 150445Z 11007KT 26/18 A3011 RMK A01 T02600180  RH  061%=      5-min Rain = 0
KLE1 150446Z 11007KT 26/18 A3011 RMK A01 T02600180  RH  061%=      5-min Rain = 0
KLE1 150447Z 11007KT 26/18 A3011 RMK A01 T02600180  RH  061%=      5-min Rain = 0
KLE1 150448Z 11007KT 26/18 A3011 RMK A01 T02610180  RH  061%=      5-min Rain = 0
KLE1 150449Z 12008KT 26/18 A3011 RMK A01 T02610180  RH  061%=      5-min Rain = 0
KLE1 150450Z 11008KT 26/18 A3011 RMK A01 T02620181  RH  061%=      5-min Rain = 0
KLE1 150451Z 12007KT 26/18 A3011 RMK A01 T02620180  RH  061%=      5-min Rain = 0
KLE1 150452Z 12007KT 26/18 A3011 RMK A01 T02610180  RH  061%=      5-min Rain = 0
KLE1 150453Z 12007KT 26/18 A3011 RMK A01 T02610180  RH  061%=      5-min Rain = 0
KLE1 150454Z 11007KT 26/18 A3011 RMK A01 T02610181  RH  061%=      5-min Rain = 0
KLE1 150455Z 11006KT 26/18 A3011 RMK A01 T02610181  RH  061%=      5-min Rain = 0
KLE1 150456Z 11006KT 26/18 A3011 RMK A01 T02600181  RH  062%=      5-min Rain = 0
KLE1 150457Z 10006KT 26/18 A3011 RMK A01 T02590181  RH  062%=      5-min Rain = 0
KLE1 150458Z 11006KT 26/18 A3011 RMK A01 T02590181  RH  062%=      5-min Rain = 0
KLE1 150459Z 11006KT 26/18 A3011 RMK A01 T02580181  RH  063%=      5-min Rain = 0

Page generated in 0.1229 seconds.